SMRA00 UAOL 251200
AAXX 25121
01001 11459 80814 10044 20023 39978 49990 52006 60021 76166 8672/ 555 90760 91122=
01002 45/// /1508 11104 21140 30221 40234 53004 333 90710 91109=
01003 12581 70507 11038 21099 30174 40188 53003 60001 8152/ 333 42/// 90710 91116 90760 91212 555 90760 91116=
01006 45/// /0606 11053 21117 30214 40230 52005 333 90710 91108 90760 91209 555 90760 91111=
01007 02/88 61504 11080 21143 30206 40216 57001 60001 82078 333 47004 60005 90710 91106 90760 91205 555 90760 91108=
01008 41482 71109 11052 21099 30168 40205 57002 73683 878// 333 48002 90710 91112 90760 91210 555 90760 91112=
01009 45/// /0603 11059 30239 40246 54002 333 90710 91105 90760 91207 555 90760 91108=
01010 05/// /1403 10027 20012 30006 40022 54001 60001 333 60005 90710 91108 90760 91206 555 90760 91108=
01011 45/// /0610 11112 21141 30219 40233 54002 333 90710 91111=
01015 45/// /1505 10011 21016 333 90710 91108 90760 91209 555 90760 91111=
01016 45/// /0407 11060 21118 30202 40220 54002 333 90710 91108 90760 91210 555 90760 91113=
01017 45/// /0905 11041 21098 30173 40197 54003 333 90710 91108=
01020 45/// /0511 11040 21051 30168 40181 54002 333 90710 91113=
01023 41583 70301 11011 21032 39942 40038 57002 77072 86778 333 46/// 90710 91103 90760 91204 555 90760 91107=
01024 45/// /0905 11050 21124 30206 40220 52008 333 90710 91108=
01025 45684 82204 10009 21020 30025 40037 54001 333 90710 91107 90760 91207 555 90760 91108=
01026 02484 62402 10009 21020 39892 40034 54000 69911 83838 333 48/// 60005 90710 91104 90760 91205 555 90760 91107=
01027 05/// ///// 10011 21024 60001 333 60005=
01028 12570 50403 11012 21072 30136 40156 57002 60001 85801 222// 555 90760 91108=
01033 45/// /1010 10016 21044 30003 40033 52006 333 90710 91115 90760 91217 555 90760 91122=
01035 45/// ///// 11036 333 4/019=
01037 05/// /1602 11009 21058 30025 40049 57006 60001 333 4/002 60005 90710 91106 90760 91204 555 90760 91108=
01042 45/// /1316 11036 21059 333 90710 91121 90760 91219 555 90760 91122=
01043 45/// /1409 11009 333 90710 91113 90760 91214 555 90760 91117=
01044 45/// /0912 10010 21036 30052 40061 57008 333 90710 91115 90760 91215 555 90760 91118=
01045 05/// /1409 11009 21060 60001 333 60005 90710 91112 90760 91212 555 90760 91116=
01046 45/// /1405 11010 21057 30047 40053 57003 333 90710 91109 90760 91209 555 90760 91112=
01047 41/08 83603 11055 21063 39688 40075 57008 77377 8802/ 333 47/// 90760 91203=
01049 45/// /2301 11017 21059 30078 40081 57011 333 90710 91104 90760 91204 555 90760 91106=
01052 05/// /1005 11024 21068 39982 40082 57007 60001 333 60005 90710 91108 90760 91207 555 90760 91111=
01055 45/// /1007 10008 21048 30074 40092 57009 333 90710 91113 90760 91212 555 90760 91115=
01058 05/// /1204 11055 21075 39604 40077 57009 60041 333 4/026 69955 90710 91107 90760 91205 555 90760 91108=
01059 45/// /1705 11028 21057 30081 40091 58010 333 90710 91107 90760 91206 555 90760 91108=
01062 12670 30307 11041 21096 30187 40200 52004 60001 81950 222// 555 90760 91111=
01065 01770 80701 11045 21059 39928 40094 57014 60011 77172 885// 333 42/// 69925 90710 91104 90760 91202 555 90760 91104=
01068 05/// /1106 11007 21038 30086 40103 57008 60001 333 4/012 60005 90710 91108 90760 91208 555 90760 91109=
01074 05/// /1202 11067 21087 30095 40110 57010 60001 333 60005 90710 91105 90760 91205 555 90760 91106=
01076 05/// /3301 11069 21080 30073 40114 58014 60001 333 60005 90710 91102 90760 91202 555 90760 91103=
01078 45/// /1803 11022 21058 30100 40110 57010 333 90710 91104 90760 91204 555 90760 91104=
01082 05/// ///// 11053 21054 30041 40111 57012 60001 333 4/003 60005=
01083 45/// /2002 11037 21069 30098 40115 57009 333 90710 91104 90760 91205 555 90760 91106=
01084 05/// /3400 11066 21069 60001 333 60005 90710 91101 90760 91202 555 90760 91102=
01086 45/// /1903 11054 21062 39927 57008 333 90710 91104 90760 91204 555 90760 91104=
01088 45/// /0104 11033 21047 30063 40112 58012 333 90710 91104 90760 91204 555 90760 91104=
01089 45/// /1403 11055 21062 30006 40115 57009 333 90710 91103 90760 91203 555 90760 91105=
01092 45/// /1904 11028 21054 30102 40113 57008 333 90710 91105 90760 91204 555 90760 91105=
01098 05/// /2902 11010 21031 30095 40113 57008 60001 333 60005 90710 91104 90760 91205 555 90760 91106=
01099 45/// /2003 11036 21054 30100 40117 57008 333 90710 91104 90760 91205 555 90760 91106=
01102 45/// /1709 10096 20069 39992 40011 57007 333 90710 91111 90760 91211 555 90760 91113=
01105 45/// /0708 10031 333 90710 91111 90760 91209 555 90760 91111=
01107 15/// /1601 10093 20088 39992 49995 57003 69961 333 90710 91103 90760 91207 555 90760 91109=
01108 01470 51605 10099 20072 39999 40010 57006 60041 78086 84362 333 32/// 60005 90710 91109 90760 91206 555 90760 91109=
01112 45/// /2002 10100 20076 30009 40018 57005 333 90710 91106 90760 91206 555 90760 91108=
01114 05/// /2101 10085 20079 39996 40006 57004 60021 333 60005 90710 91104 90760 91206 555 90760 91108=
01115 05/// /1706 10089 20084 39980 40000 57003 60081 333 60025 90710 91111 90760 91208 555 90760 91111=
01116 45/// /1905 10101 20082 39991 40012 57002 333 90710 91108 90760 91207 555 90760 91111=
01117 05/// /1802 10089 20075 60041 333 60005 90710 91103 90760 91205 555 90760 91107=
01121 45/// /1804 10087 20081 39999 49999 57002 333 90710 91108 90760 91206 555 90760 91109=
01124 05/// ///// 10083 20041 69911 333 60005=
01132 05/// /3500 10052 20046 39653 40037 57006 60011 333 69915 90710 91103 90760 91202 555 90760 91103=
01133 15/// /1702 10069 20060 69991 333 90710 91104 90760 91203 555 90760 91106=
01135 05/// /1802 10057 20056 39873 40023 57003 60031 333 4/002 69935 90710 91105 90760 91203 555 90760 91105=
01139 45/// /0405 10076 20072 39998 40003 57003 333 90710 91106 90760 91205 555 90760 91106=
01141 05/// /0703 10049 20046 39976 40006 54000 69951 333 60005 90710 91104 90760 91204 555 90760 91105=
01143 05/// /0602 10050 20040 60011 333 69965 90710 91104 90760 91207 555 90760 91109=
01144 45/// /1306 10075 20071 333 90710 91108 90760 91209 555 90760 91111=
01146 05/// /3600 10049 20045 60021 333 69925 90710 91102 90760 91201 555 90760 91102=
01147 05/// /0200 10041 20037 60021 333 4/004 60015 90710 91102 90760 91201 555 90760 91102=
01148 45/// /1301 10028 20027 333 90710 91102 90760 91202 555 90760 91103=
01150 01/40 91501 10031 20027 60011 76064 89/// 333 43014 69985 90710 91101 90760 91202 555 90760 91102=
01151 45/// /0902 10039 20034 39944 40029 57002 333 90710 91102 90760 91202 555 90760 91104=
01152 11270 80807 10056 20049 39994 40010 57003 60071 76165 887// 333 32/// 90710 91109 90760 91207 555 90760 91109=
01156 05/// /0805 10047 39982 40004 57001 69951 333 69945 90710 91108 90760 91206 555 90760 91108=
01158 05/// ///// 10046 20037 30007 40016 58002 60011 333 60005=
01160 45/// /0508 10041 20034 39993 40007 50000 333 90710 91111 90760 91210 555 90760 91114=
01161 45/// /1006 10041 20031 30001 40012 52002 333 90710 91109 90760 91208 555 90760 91109=
01162 45/// /0502 10034 20023 30004 40009 54001 333 90710 91105 90760 91204 555 90760 91105=
01169 05/// ///// 10030 20029 39973 40019 57001 69991 333 69995=
01180 05/// /1702 10017 20006 39963 40018 54001 60031 333 4/006 69915 90710 91103 90760 91203 555 90760 91106=
01183 45/// /1602 10019 20006 39989 40021 58000 333 90710 91106 90760 91205 555 90760 91108=
01192 05/// /1502 10014 21017 60011 333 60005 90710 91108 90760 91204 555 90760 91108=
01198 05/// ///// 11023 21057 39796 40050 57007 60021 333 60005=
01199 41466 81003 11047 21049 39597 40072 57007 77073 887// 333 47/// 90710 91105 90760 91206 555 90760 91107=
01203 45/// /1920 10112 20084 39940 49987 55007 333 90710 91124 90760 91222 555 90760 91126=
01205 45/// /2217 10117 20089 39944 49988 55006 333 90710 91123 90760 91219 555 90760 91123=
01209 45/// /0801 10101 20062 39930 40018 53005 333 90710 91106 90760 91205 555 90760 91109=
01210 45/// /2005 10110 20077 39981 40007 53003 333 90710 91109 90760 91206 555 90760 91109=
01212 45/// /1909 10110 20077 39986 40003 55001 333 90710 91113 90760 91210 555 90760 91113=
01214 45/// /2002 10105 20068 333 90710 91106 90760 91206 555 90760 91109=
01217 45/// /0202 10106 20078 30000 40004 55002 333 90710 91105 90760 91205 555 90760 91106=
01218 05/// /1503 10149 20018 39986 40007 56013 60001 333 60005 90710 91109 90760 91206 555 90760 91110=
01220 15/// /1311 10024 21002 60001 333 4/124 90710 91115 90760 91212 555 90760 91116=
01221 15/// ///// 10080 20014 60001=
01223 45/// /1601 10129 20041 39925 49999 57008 333 90710 91105 90760 91204 555 90760 91107=
01224 45/// ///// 10110 20102=
01225 45/// /1504 10112 20082 39993 49998 56010 333 90710 91106 90760 91206 555 90760 91107=
01227 05/// ///// 10125 20011 60001 333 4/005 60005=
01228 45/// /1404 10106 20069 39993 40000 56011 333 90710 91107 90760 91206 555 90760 91108=
01230 05/// /0605 10088 20015 60001 333 4/026 60005 90710 91109 90760 91205 555 90760 91109=
01232 05/// /1305 10141 20027 39930 40006 57015 60001 333 60005 90710 91114 90760 91208 555 90760 91114=
01233 05/// /1404 10081 20028 60001 333 60005 90710 91108 90760 91209 555 90760 91113=
01234 15/// /1903 10059 20050 60001 333 90710 91104 90760 91204 555 90760 91105=
01237 05/// /3501 10106 20054 39988 40003 57013 60001 333 60005 90710 91105 90760 91205 555 90760 91106=
01238 12468 72004 10053 38919 40033 56011 60001 83341 333 41/// 90710 91112 90760 91209 555 90760 91113=
01239 05/// /2502 10048 20008 60001 333 60005 90710 91104 90760 91204 555 90760 91106=
01240 45/// /1508 10106 39981 40000 57012 333 90710 91111 90760 91211 555 90760 91113=
01241 12788 71107 10092 20056 39998 40008 56013 60001 84572 333 30/// 90710 91109 90760 91208 555 90760 91110=
01242 15/// ///// 10092 20072 69921=
01245 05/// /2202 10085 20014 39343 40030 55003 60001 333 60005 90710 91108 90760 91205 555 90760 91108=
01250 45/// ///// 10077 20019=
01253 45/// /1901 10097 20051 333 90710 91106=
01254 05/// /3401 10080 20077 69921 333 60005 90710 91102 90760 91202 555 90760 91103=
01257 05/// /2102 10104 20045 39860 40017 58012 69921 333 60005 90710 91106 90760 91203 555 90760 91106=
01259 45/// /1205 10113 20050 39985 40007 57011 333 90710 91110 90760 91209 555 90760 91110=
01262 45/// /1307 10093 333 90710 91109 90760 91208 555 90760 91109=
01265 05/// /2103 10095 20028 39475 40039 57012 60001 333 60005 90710 91110 90760 91204 555 90760 91110=
01270 05/// ///// 10110 20051 60001 333 60005=
01271 05984 00702 10119 20053 30002 40023 57011 60001 333 60005 90710 91105 90760 91204 555 90760 91105=
01272 05/// ///// 10097 20063 69941 333 60005=
01273 05/// /1602 10118 20043 39835 40026 58011 69911 333 60005 90710 91105 90760 91204 555 90760 91108=
01277 05/// /2300 10063 20057 30018 40026 57012 60001 333 60005 90710 91102 90760 91201 555 90760 91102=
01281 05/// /0702 10044 20036 39863 40034 57009 69931 333 60005 90710 91104 90760 91203 555 90760 91104=
01282 45/// /1304 10089 20062 30013 40018 55006 333 90710 91107 90760 91205 555 90760 91107=
01287 15/// ///// 10060 20033 60001=
01288 42578 62104 10075 20030 39314 40043 57008 84509 333 31/// 90710 91109 90760 91207 555 90760 91109=
01290 45/// /0607 10080 20061 30020 40023 57011 333 90710 91109 90760 91208 555 90760 91109=
01291 05/// /2601 10057 20054 69921 333 60005 90710 91102 90760 91202 555 90760 91102=
01293 05/// /3302 10107 20044 39825 40027 56014 60001 333 60005 90710 91106 90760 91204 555 90760 91106=
01304 45/// /2012 10118 20094 39982 40012 52008 333 90710 91116 90760 91216 555 90760 91120=
01307 45/// /2114 10117 20094 30006 40029 52006 333 90710 91116 90760 91217 555 90760 91120=
01308 05/// ///// 10116 20084 60091 333 60005=
01310 45/// /2010 10117 20095 30002 40016 52008 333 90710 91116 90760 91214 555 90760 91119=
01311 07469 82009 10115 20092 39982 40042 55000 60001 781// 333 60005 90710 91113 90760 91210 555 90760 91113=
01314 05/// /1606 10121 20084 60071 333 60015 90710 91112 90760 91209 555 90760 91114=
01315 05/// /1002 10094 20089 60081 333 60035 90710 91105 90760 91205 555 90760 91108=
01317 01375 71506 10118 20094 30000 40043 52002 60031 78086 86872 333 32/// 69955 90710 91111 90760 91207 555 90760 91112=
01319 05/// ///// 10117 20093 60091 333 69945=
01320 45/// /0705 10094 20081 39949 40021 53004 333 90710 91107 90760 91208 555 90760 91111=
01321 05/// /1103 10086 20061 39778 40025 53003 60061 333 60055 90710 91108 90760 91203 555 90760 91108=
01323 45/// /2003 10092 20076 39649 40026 55000 333 90710 91106 90760 91205 555 90760 91109=
01326 05/// ///// 10101 20090 60041 333 60035=
01327 05/// /1802 10084 20060 39509 40047 55006 60191 333 60075 90710 91110 90760 91207 555 90760 91114=
01329 41120 80403 10089 20084 39992 40056 55008 76366 887// 333 32/// 90710 91107 90760 91205 555 90760 91108=
01332 45/// /2301 10072 333 90710 91102 90760 91202 555 90760 91103=
01336 05/// ///// 10083 20077 60111 333 60035=
01337 05/// /0901 10093 20087 39981 40048 55004 60071 333 60025 90710 91103 90760 91202 555 90760 91104=
01338 01350 71403 10077 20069 39982 40022 55008 60041 76286 8779/ 333 32/// 60015 90710 91105 90760 91205 555 90760 91108=
01340 05/// /2203 10087 20031 39199 40047 55008 69921 333 60005 90710 91107 90760 91206 555 90760 91108=
01342 05/// ///// 10094 20085 60021 333 69955=
01344 45/// ///// 10079 20038=
01347 45/// /2001 10083 20049 39455 40038 56011 333 90710 91103 90760 91203 555 90760 91104=
01350 05/// /1505 10036 20013 38674 40047 57008 69991 333 69915 90710 91108 90760 91206 555 90760 91108=
01352 15/// /1807 10034 20013 69951 333 90710 91111 90760 91208 555 90760 91111=
01355 05/// ///// 10079 20062 30030 40035 58019 60001 333 60005=
01357 45/// /0602 10045 20042 39125 40061 57011 333 90710 91104 90760 91206 555 90760 91109=
01358 45/// ///// 10060 20050 39346 40056 57012=
01359 01582 72205 10090 20028 39159 40042 57010 60001 70282 86801 333 31/// 4/004 60005 90710 91110 90760 91206 555 90760 91110=
01360 41685 73603 10049 20033 70282 85808 333 43/// 90760 91203=
01361 05/// /0804 10062 20001 39022 40023 57011 60001 333 4/045 60005 90710 91108 90760 91206 555 90760 91110=
01362 45/// /2116 11007 21024 40016 58010 333 4/005 90710 91121 90760 91216 555 90760 91121=
01364 05/// /1804 10065 20012 38950 40041 57009 60001 333 60005 90710 91107 90760 91205 555 90760 91107=
01365 05/// /1302 10048 20025 60001 333 60005 90710 91104 90760 91203 555 90760 91105=
01366 05/// /1606 10016 20001 38453 40043 57007 69961 333 60005 90710 91111 90760 91207 555 90760 91111=
01367 05/// /1205 10101 20051 39623 40053 57012 60001 333 60005 90710 91108 90760 91205 555 90760 91108=
01368 45/// /1805 10075 20034 39108 40054 57007 333 90710 91108 90760 91207 555 90760 91109=
01370 05/// /1903 10052 20024 38980 40048 57010 60001 333 4/004 60005 90710 91108 90760 91204 555 90760 91109=
01371 05/// ///// 10077 20040 60001 333 60005=
01373 02689 61403 10109 20063 39862 40061 57014 60001 85801 333 30/// 60005 90710 91105 90760 91203 555 90760 91105=
01374 05/// /1803 10072 20068 60001 333 60005 90710 91106 90760 91204 555 90760 91106=
01375 45/// /1808 10033 20033 38876 40056 57010 333 90710 91112 90760 91210 555 90760 91113=
01376 15/// /1101 10114 20076 60001 333 90710 91106 90760 91205 555 90760 91108=
01378 05/// /1703 10103 20065 39777 40064 57011 60001 333 60005 90710 91108 90760 91205 555 90760 91108=
01380 41/01 91704 10036 20033 74544 89/// 333 42/// 90710 91109 90760 91205 555 90760 91109=
01381 05/// ///// 10099 20069 69951 333 60005=
01382 05/// ///// 10110 20069 60001 333 60005=
01383 45/// /1104 10101 20066 39762 40067 57009 333 90710 91107 90760 91204 555 90760 91107=
01384 05458 /1806 10091 20079 58011 60011 333 69925=
01385 05/// /1902 10091 20075 39813 40079 58011 69961 333 60005 90710 91104 90760 91202 555 90760 91104=
01386 05/// ///// 10101 20077 69961 333 60005=
01389 05/// /1905 10092 39778 40082 57009 69931 333 60005 90710 91107 90760 91205 555 90760 91109=
01392 05/// /1702 10088 20069 39866 40089 57008 60001 333 60005 90710 91105 90760 91204 555 90760 91106=
01393 05/// /1803 10082 20039 39276 40057 57006 60001 333 60005 90710 91108 90760 91204 555 90760 91109=
01397 05/// /1302 10082 20063 39651 40080 57005 69951 333 60005 90710 91105 90760 91203 555 90760 91105=
01403 01570 62212 10115 20101 39984 40051 54000 69931 72582 83232 333 31/// 69935 90710 91116 90760 91213 555 90760 91116=
01406 45/// /2012 10118 20092 30020 40040 55001 333 90710 91116 90760 91212 555 90760 91116=
01408 45/// /2109 10121 20100 30023 40055 55001 333 90710 91113 90760 91210 555 90760 91114=
01411 05/// /2011 10122 20104 30032 40059 57002 60001 333 60005 90710 91115 90760 91212 555 90760 91115=
01412 05/// /2009 10118 30041 40071 56003 60001 333 60005 90710 91115 90760 91212 555 90760 91115=
01413 05/// /2106 10115 20098 69931 333 60005 90710 91112 90760 91206 555 90760 91112=
01414 45/// /2111 10118 333 90710 91115 90760 91212 555 90760 91115=
01415 47369 82008 10124 20103 30054 40065 58006 721// 333 90710 91111 90760 91208 555 90760 91111=
01416 05/// ///// 10119 20099 60001 333 60005=
01417 05/// ///// 10121 20102 60021 333 69985=
01418 45/// ///// 10115=
01419 05/// /2105 10094 20083 60091 333 60045 90710 91109 90760 91206 555 90760 91111=
01422 05/// /1804 10116 20095 69981 333 69945 90710 91108 90760 91205 555 90760 91110=
01424 01460 8//// 10098 20092 30059 40062 56010 60131 76166 886// 333 32/// 60035=
01425 01370 82002 10110 20101 30001 40080 56007 60061 78086 889// 333 31/// 60035 90710 91106 90760 91205 555 90760 91109=
01426 45/// /1909 10119 333 90710 91113 90760 91211 555 90760 91115=
01430 05/// ///// 10129 20104 69911 333 60005=
01431 05/// /1902 10079 20064 39423 40074 58007 60061 333 69995 90710 91108 90760 91205 555 90760 91108=
01434 15/// /2403 10070 20036 39112 40059 57009 60021 333 90710 91106 90760 91203 555 90760 91106=
01436 41262 82108 10124 20105 70282 885// 222// 00120 333 31/// 90710 91111 90760 91212 555 90760 91114=
01439 41480 72301 10098 20095 72586 8737/ 333 32///=
01440 45/// /2007 10040 20039 38815 40076 57004 333 90710 91111=
01441 05/// /1905 10070 20039 39096 40052 57008 69961 333 60005 90710 91109 90760 91206 555 90760 91109=
01442 05/// /1407 10110 20079 39834 40085 58003 60021 333 60005 90710 91110 90760 91208 555 90760 91110=
01444 05/// /0101 10085 20083 60051 333 60005 90710 91102 90760 91202 555 90760 91103=
01447 05/// /1003 10088 20066 39416 40070 57010 60021 333 4/009 69915 90710 91106 90760 91203 555 90760 91106=
01448 45/// /2306 10127 20109 30089 40099 57004 333 90710 91110 90760 91209 555 90760 91112=
01449 05/// /1101 10123 20109 60011 333 60005 90710 91103 90760 91202 555 90760 91103=
01450 05/// /2305 10052 20043 38943 40066 57008 60011 333 69935 90710 91108 90760 91206 555 90760 91108=
01452 45/// /2304 10127 20095 30075 40096 57003 333 90710 91109 90760 91208 555 90760 91111=
01453 05/// /2303 10110 20094 60021 333 60005 90710 91107 90760 91205 555 90760 91109=
01455 05/// /1402 10120 20087 39778 40079 57009 69981 333 60005 90710 91107 90760 91203 555 90760 91107=
01459 41570 72604 10120 20097 70382 8672/ 333 32///=
01460 45/// /1910 10111 333 90710 91113 90760 91212 555 90760 91114=
01463 05/// ///// 10098 20093 60031 333 60025=
01464 05/// /2004 10132 20100 60021 333 60005 90710 91106 90760 91206 555 90760 91110=
01465 05/// /2210 10128 20110 30072 40090 54001 69941 333 60005 90710 91113 90760 91214 555 90760 91116=
01466 45/// /1903 10107 20092 39959 40089 58013 333 90710 91106 90760 91204 555 90760 91107=
01467 45/// /2207 10128 20099 30090 40095 57003 333 90710 91110 90760 91211 555 90760 91115=
01468 15/// /2203 10099 20059 60001 333 90710 91107 90760 91205 555 90760 91109=
01469 05/// /1604 10109 20087 39909 40077 58011 69951 333 60005 90710 91108 90760 91204 555 90760 91108=
01470 05/// /1605 10123 20090 39967 40078 57013 60001 333 60005 90710 91107 90760 91205 555 90760 91107=
01471 45/// /1301 10104 20083 39741 40068 58013 333 90710 91103 90760 91203 555 90760 91105=
01473 41673 71301 10119 20090 39871 40077 58014 70160 877// 333 31///=
01476 05/// /2010 10124 20111 30086 40092 56010 60021 333 60005 90710 91113 90760 91211 555 90760 91114=
01477 05/// /1202 10097 20092 69931 333 60005 90710 91105 90760 91203 555 90760 91106=
01478 45/// /2111 10118 333 90710 91114 90760 91213 555 90760 91115=
01480 05/// /1502 10117 20096 60001 333 60005 90710 91104 90760 91203 555 90760 91105=
01481 05/// /2003 10111 20105 30063 40094 57013 69941 333 69925 90710 91108 90760 91204 555 90760 91108=
01482 45/// /2111 10116 20098 30085 40094 57011 333 90710 91113 90760 91211 555 90760 91113=
01483 45/// /1907 10108 20108 39989 40094 57011=
01484 15/// /1906 10095 39940 40092 57013 60001 333 90710 91110 90760 91206 555 90760 91110=
01485 05/// /0504 10104 20094 69951 333 69915 90710 91106 90760 91204 555 90760 91107=
01486 05/// ///// 10094 20089 69921 333 69925=
01488 05/// /1201 10091 20091 60021 333 69975 90710 91105 90760 91203 555 90760 91107=
01489 05/// ///// 10081 20079 60011 333 69925=
01490 05/// /1906 10072 20072 69931 333 60005 90710 91112 90760 91208 555 90760 91112=
01492 01170 82003 10096 20094 39971 40088 58013 69981 72162 886// 333 32/// 69945 90710 91107 90760 91205 555 90760 91108=
01493 45/// /1904 10099 20093 333 90710 91111 90760 91205 555 90760 91111=
01494 07257 81906 10102 20093 30034 40098 57011 60001 723// 333 60005 90710 91110 90760 91207 555 90760 91110=
01495 45/// /2011 10107 30086 40099 57012 333 90710 91114 90760 91212 555 90760 91114=
02013 27/56 /0302 11011 21026 39377 40032 50000 74187 333 69935 90710 91103=
02019 27/42 /0000 11042 21053 39411 40040 52002 76487 333 69915 90710 91102=
02022 27558 82601 11036 21051 39562 40044 50001 74187 333 69925 85/27 88/38 90710 91101=
02024 47/56 /1305 11031 21052 77187 333 90710 91106=
02028 333 55300 20329 41037=
02029 46/// /3307 10025 21013 38686 57003 333 90710 91118=
02031 27/67 /0000 11054 21073 72487 333 60005 90710 91101=
02036 27784 13601 11059 21108 39475 40049 57004 70087 333 60005 81/50 90710 91102=
02038 27/84 /3301 11045 21058 70087 333 60005 90710 91102=
02044 47459 /0301 11044 21056 39485 40048 58003 771// 333 81/11 85/13 87/23 88/26=
02049 27/68 /0000 11022 21033 39602 40043 57004 70072 333 60005 90710 91101=
02055 27924 01003 11047 21060 77177 333 69945 90710 91104=
02064 27/33 /0701 11014 21034 72274 333 69915 90710 91102=
02071 333 55310 21052 40973=
02072 27/19 90901 11026 21030 39666 40052 57006 72477 333 60005 89/07 90710 91104=
02081 27/61 /0902 11039 21049 39649 40058 57006 77177 333 69905 90710 91104=
02091 333 55300=
02095 27219 81002 11008 21010 39846 40051 57006 74187 333 69915 88/05 90710 91104=
02101 47482 /0801 10022 20020 39488 40040 58003 781// 333 88/19=
02102 46/// /2107 10010 20008 333 90710 91108=
02103 46/// /1704 10019 20017 333 90710 91105=
02110 27/84 /2701 10049 20035 700// 333 60005 90710 91104=
02119 27984 70401 11029 21069 39660 40050 57004 700// 333 60005 87/63 87/68 90710 91101=
02121 27/60 /1602 11010 21025 39301 40041 57001 7646/ 333 69905 90710 91104=
02124 27676 31701 10015 20007 39518 40041 52001 7616/ 333 69915 82/34 83/60 90710 91103=
02126 27239 81501 10010 20007 39712 40052 58003 71032 333 60005 88/03 90710 91102=
02135 27/25 90000 10002 20001 76165 333 60005 89/01 90710 91102=
02141 07105 82401 11022 21022 39343 40044 50000 60001 7348/ 333 60005 88/02 90710 91002 91102=
02147 27/84 /2102 10013 20011 72032 333 60005 90710 91102=
02149 27908 00000 10010 20007 39578 40045 52001 73132 333 60005 90710 91101=
02151 07182 8//// 11031 21037 39712 40052 55000 69911 70075 333 60005 88/03=
02154 07182 80000 10000 21003 39823 40048 50000 69901 70075 333 60005 81/03 86/05 88/08 90710 91000 91101=
02161 27/// 92601 11018 21043 71074 333 60005 89/06 90710 91102=
02171 07184 82802 10002 21004 30016 40047 53003 60001 70081 333 60005 83/03 88/05 90710 91003 91104=
02173 27/04 92001 10002 21000 73432 333 69925 89/04 90710 91103=
02174 27/// 92801 11008 21029 39816 40046 52001 71042 333 60005 89/02 90710 91102=
02176 27284 82203 10037 20022 700// 333 60005 88/04 90710 91105=
02181 27932 00801 10009 20006 39968 40045 57002 71087 333 60005 90710 91102=
02183 333 55300 20290=
02184 27/56 /1301 11000 21002 39762 40044 58002 71087 333 60005 90710 91102=
02186 07182 83001 10025 20023 30018 40043 51001 60001 7003/ 333 60005 88/03 90710 91001 91101=
02188 27384 82403 10042 20040 70082 333 60005 87/07 88/44 90710 91105=
02191 27156 82202 10037 20037 71086 333 60005 84/02 87/05 88/08 90710 91103=
02197 27123 81102 10012 20010 30027 40046 57006 75176 333 69915 88/02 90710 91105=
02199 27931 01301 10001 21002 72376 333 69915 90710 91102=
02207 27984 21906 10070 20025 39346 40034 58012 700// 333 60005 82/59 90710 91112=
02209 46/// /2010 10040 21000 333 90710 91117=
02210 46/// /1910 10022 20008 333 90710 91116=
02219 27/// /0000 10031 20026 39380 40043 58008 73183 333 60005 90710 91102=
02221 27/84 /0000 10041 20014 7001/ 333 60005 90710 91103=
02226 45984 /3401 10065 20056 39595 40043 56011 333 83/59=
02229 333 55307 20767=
02230 27/02 /0000 10026 20025 73332 333 60005 90710 91102=
02231 27284 30902 10053 20043 70032 333 60005 83/05 90710 91103=
02236 27284 71601 10050 20048 39596 40048 58009 70032 333 60005 87/03 87/60 90710 91102=
02242 27/04 /0000 10023 20010 73432 333 60005 90710 91102=
02243 27/27 /0601 10034 20011 39790 40059 58009 72032 333 60005 90710 91101=
02245 27/16 /1701 10013 20011 39632 40057 58004 72033 333 60005 90710 91103=
02247 27/01 91801 10014 21002 39834 40061 56014 77187 333 69905 89/01 90710 91102=
02254 27/02 936// 10017 20016 39682 40059 58003 73432 333 60005 89/01 90710 91102=
02260 27/81 /0000 10028 20026 39886 40061 58007 700// 333 60005 90710 91101=
02261 27/83 /1501 10034 20023 39794 40052 55002 70032 333 60005 90710 91102=
02263 27105 80000 10026 20023 73432 333 60005 85/01 88/61 90710 91102=
02265 27171 80000 10020 20019 39837 40063 58008 72032 333 60005 87/02 88/68 90710 91101=
02267 45980 /2701 10032 20030 39929 40062 58004 333 87/68=
02269 27984 83101 10054 20026 700// 333 60005 88/68 90710 91103=
02271 27/70 /0000 10015 20013 39673 40052 50000 72032 333 60005 90710 91102=
02282 27/// 90000 10020 20016 70032 333 60005 89/02 88/04 90710 91101=
02283 333 55306 20629 41003=
02284 27966 52702 10056 20041 30051 40060 58006 700// 333 60005 85/68 90710 91104=
02286 47116 /1302 10028 20028 30052 40061 58002 710// 333 88/03=
02287 27182 62505 10048 20035 30052 40061 54000 70032 333 60005 82/02 86/58 90710 91106=
02293 45/84 /2503 10035 20024 39991 40050 55002=
02297 27984 02604 10050 20042 30004 40049 57002 7001/ 333 60005 90710 91105=
02307 46/// /2406 10048 20030 333 90710 91110=
02308 27484 81901 10071 20008 39209 40054 57007 700// 333 60005 88/19 90710 91104=
02316 46/// ///// 10084=
02317 27584 82704 10076 20037 70086 333 60005 88/20 90710 91108=
02319 27/84 /2503 10079 20026 700// 333 60005 90710 91108=
02321 27484 82203 10087 20060 39780 40083 57005 70086 333 60005 88/14 90710 91106=
02325 27/84 /2508 10059 20028 39111 40047 58006 700// 333 60005 90710 91115=
02327 27/83 /2605 10093 20045 39635 40061 57009 70086 333 60005 90710 91108=
02329 27/84 /2304 10077 20053 39532 40071 57007 700// 333 60005 90710 91107=
02338 27483 82303 10091 20055 39859 40081 57007 700// 333 60005 88/15 90710 91107=
02343 27782 80000 10037 20010 39941 40064 57009 72487 333 69915 82/56 84/59 88/64 90710 91102=
02347 27583 42204 10103 20055 39983 40069 58009 70086 333 60005 82/25 84/33 90710 91106=
02355 27583 82203 10108 20064 30063 40076 58006 700// 333 60005 84/25 88/40 90710 91107=
02366 47857 /3401 10033 20023 30060 40066 58009 762// 333 88/57=
02368 27984 31903 10101 20058 70086 333 60005 83/59 90710 91106=
02382 27/83 /2301 10083 20057 700// 333 60005 90710 91103=
02403 27778 72004 10106 20063 700// 333 60005 87/50 90710 91108=
02407 27481 81703 10074 20043 39731 40097 57006 70086 333 60005 88/10 90710 91106=
02408 27468 82002 10098 20073 39902 40108 57009 700// 333 60005 88/11 90710 91106=
02411 27479 81602 10102 20065 30025 40106 58012 700// 333 60005 88/19 90710 91104=
02417 46/// /1809 333 90710 91111=
02418 45480 /2005 10093 20071 39985 40115 57009 333 83/17 88/45=
02419 333 55300 20264=
02423 27478 81602 10085 20058 700// 333 60005 88/16 90710 91105=
02426 27480 82103 10081 20055 39879 40106 57008 700// 333 60005 88/14 90710 91107=
02429 27473 81903 10085 20060 700// 333 60005 88/12 90710 91106=
02431 27477 82303 10070 20048 39775 40118 57008 700// 333 60005 88/11 90710 91106=
02432 45583 /2403 10103 20048 30057 40127 57011 333 87/26 88/50=
02435 45481 /2206 10090 20050 39916 40101 57008 333 84/19 88/48=
02440 27582 82402 10093 20050 700// 333 60005 88/20 90710 91106=
02441 27481 82203 10086 20054 39852 40089 57007 700// 333 60005 88/14 90710 91108=
02443 05583 82103 10084 20052 30097 40127 58013 60001 333 60005 88/23 90710 91006 91106=
02449 27563 82303 10088 20032 30116 40131 57012 700// 333 60005 88/29 90710 91109=
02450 46/// /2207 10090 20054 333 90710 91110=
02452 27482 82303 10079 20047 700// 333 60005 86/16 87/32 88/42 90710 91107=
02453 27780 12203 10099 20050 700// 333 60005 81/50 90710 91107=
02456 27983 62104 10094 20046 30072 40114 58013 700// 333 60005 86/64 90710 91107=
02458 05582 82105 10085 20048 30099 40124 58012 60001 333 60005 88/23 90710 91007 91108=
02460 45483 /2106 10074 20034 30074 40125 58013 333 83/19 88/32=
02464 45581 /2204 10084 20027 30117 40135 58012 333 88/28=
02468 27/73 /1502 10055 20024 7001/ 333 60005 90710 91108=
02469 27/84 /2204 10077 20029 700// 333 60005 90710 91109=
02476 27582 82003 10086 20033 30095 40135 57013 700// 333 60005 88/27 90710 91106=
02481 27483 82103 10087 20049 30048 40119 57011 700// 333 60005 88/19 90710 91107=
02482 27581 52704 10087 20048 30043 40113 57008 700// 333 60005 85/20 90710 91109=
02483 333 55300 20453=
02484 46/// ///// 10083 20028 30080 40134 58012=
02486 27/82 /2204 10093 20034 700// 333 60005 90710 91108=
02487 46/// /2304 10082 20039 333 90710 91110=
02488 27983 62210 10096 20050 30097 40108 58013 700// 333 60005 86/64 90710 91112=
02489 05582 82403 10079 20048 30138 40143 58010 60001 333 60005 88/23 90710 91007 91107=
02490 27580 82302 10088 20039 30106 40126 58012 700// 333 60005 86/24 88/31 90710 91106=
02492 333 55307 20912 41024=
02493 469// 02309 10094 20046 333 90710 91112=
02498 27474 72311 10084 20059 30119 40135 58013 700// 333 60005 82/16 87/23 90710 91114=
02500 27358 82010 10106 20097 30062 40104 57010 72386 333 69915 87/07 88/09 90710 91114=
02501 46/// /1910 10107 20092 30082 40111 57008 333 90710 91113=
02503 333 55300 20153=
02505 274// 31910 10111 20095 71082 333 60005 82/19 83/71 90710 91113=
02513 26/// /1904 10111 20067 30132 40137 57009 333 60005 90710 91108=
02516 27564 71911 10112 20081 30108 40131 57007 700// 333 60005 84/24 87/33 90710 91113=
02518 464// 41809 10108 20086 333 84/12 90710 91112=
02520 05581 82007 10104 20073 30059 40125 58009 60001 333 60005 87/21 88/50 90710 91009 91109=
02526 45482 /1907 10091 20056 39953 40140 57009 333 85/15 88/40=
02531 333 55300 20321=
02536 27467 81703 10073 20055 39782 40142 58006 7001/ 333 60005 86/11 88/14 90710 91106=
02539 27465 81701 10090 20069 7001/ 333 60005 88/11 90710 91105=
02540 27470 72202 10099 20070 7001/ 333 60005 86/14 87/25 90710 91107=
02542 27777 82105 10097 20064 30043 40130 57010 700// 333 60005 88/50 90710 91108=
02544 05581 42006 10094 20063 30021 40135 57010 60001 333 60005 84/27 90710 91008 91108=
02545 05580 3//// 10088 20085 30028 40136 56009 60001 333 60005 82/26 83/62=
02546 27581 82302 10088 20048 39872 40128 57010 700// 333 60005 85/30 88/44 90710 91106=
02548 27/79 /1908 10086 20046 700// 333 60005 90710 91111=
02549 27261 82203 10051 20027 71032 333 60005 88/05 90710 91106=
02550 45983 /2005 10077 20055 39873 40146 57012 333 81/60=
02552 27977 02204 10081 20022 700// 333 60005 90710 91109=
02554 27479 62104 10081 20042 700// 333 60005 84/11 86/34 90710 91109=
02556 07473 82402 10071 20068 39951 40158 58009 60001 70031 333 60005 87/12 88/17 90710 91003 91104=
02557 27580 22405 10090 20030 30040 40151 57011 7001/ 333 60005 82/23 90710 91107=
02558 27582 82203 10082 20036 39951 40139 57013 700// 333 60005 88/20 90710 91107=
02559 27/80 /2303 10114 20046 700// 333 60005 90710 91106=
02561 05682 62103 10091 20042 30051 40138 56013 60001 333 60005 86/38 90710 91005 91106=
02562 02581 12207 10087 20044 30029 40143 56015 60001 81502 333 60005 81620 90710 91009 91111=
02563 27581 62304 10098 20041 30126 40147 58015 700// 333 60005 86/22 90710 91107=
02565 27965 02505 10098 20046 30036 40155 57010 7001/ 333 60005 90710 91108=
02567 27583 82407 10074 20038 30123 40148 58008 700// 333 60005 88/22 90710 91110=
02574 27982 02203 10100 20035 30088 40139 57015 700// 333 60005 90710 91108=
02575 27469 22005 10105 20061 30151 40156 58015 700// 333 60005 82/17 90710 91110=
02587 27980 02106 10105 20051 700// 333 60005 90710 91109=
02589 27479 82508 10097 20048 30132 40152 57016 700// 333 60005 88/17 90710 91114=
02590 05481 82108 10094 20062 30102 40163 58011 60001 333 60005 88/17 90710 91010 91112=
02598 46/// /2111 10090 20064 333 90710 91115=
02604 45465 /1603 10095 20073 30119 40156 56009 333 81/11 83/58=
02605 27967 12005 10111 20070 700// 333 60005 81/70 90710 91107=
02607 45980 /2003 10114 20057 30134 40157 333 81/60=
02611 27/78 /1203 10104 20067 30104 40158 57009 7001/ 333 60005 90710 91105=
02615 27979 02205 10111 20079 30163 40167 57007 700// 333 60005 90710 91108=
02618 27/60 /1902 10084 20061 39990 40154 57009 70083 333 60005 90710 91104=
02622 27480 12302 10098 20054 70032 333 60005 81/17 90710 91104=
02623 27978 02203 10112 20061 7001/ 333 60005 90710 91106=
02625 27475 42206 10100 20074 30166 40172 57007 700// 333 60005 84/14 90710 91109=
02628 27973 02205 10096 20064 700// 333 60005 90710 91106=
02629 05481 21803 10099 20081 30038 40162 57010 60001 333 60005 82/15 90710 91004 91104=
02632 46/// /2307 10099 20071 333 90710 91109=
02633 333 55310 21192=
02635 27/71 /2102 10116 20067 7001/ 333 60005 90710 91105=
02636 45480 /2006 10111 20076 30080 40167 57008 333 83/15=
02643 333 55305 20875 41072=
02644 27469 62205 10092 20075 30166 40170 56011 700// 333 60005 86/12 90710 91109=
02648 27/75 /1902 10086 20054 39916 40158 57010 70032 333 60005 90710 91105=
02661 07473 22302 10089 20053 39884 40161 58010 60001 70031 333 60005 82/16 90710 91004 91106=
02664 05980 02204 10106 20077 30096 40167 58012 60001 80000 333 60005 90710 91006 91107=
02665 333 55303=
02667 05479 62305 10103 20079 30167 40170 58011 60001 333 60005 86/17 90710 91008 91108=
02670 46/72 /2104 10119 20069 30153 40159 58013=
02679 27472 72107 10095 20072 30128 40172 58013 700// 333 60005 87/11 90710 91111=
02701 46/// /1106 11087 21097 333 90710 91007 91108=
02702 27556 8//// 11047 21055 771// 88/// 333 4/997 60005 88/50=
02704 26/// ///// 10082 20052 333 4/997 60005=
02705 46/// /1110 11041 21041 39462 40066 57010 333 90710 91012 91113=
02706 26/// ///// 10095 20040 333 4/997 60005=
02708 26/// ///// 10075 20062 39895 40092 52003 333 4/997 60005=
02710 26/// ///// 10058 20057 333 4/997 69915=
02714 27107 82402 10016 20015 39917 40060 54000 730// 88/// 333 4/998 60005 90710 91003 91103=
02717 27418 81103 11039 21049 771// 88/// 333 4/997 69965 88/21 90710 91004 91105=
02718 27363 82306 10073 20065 700// 88/// 333 4/997 60005 85/12 88/16 90710 91010 91110=
02719 26/// /1503 11030 21040 333 4/998 69945 90710 91005 91108=
02720 47343 81203 11027 21037 39821 40064 771// 88/// 333 81/23 88/29 90710 91004 91104=
02721 44383 72207 10063 20053 30047 40056 57002 70010 87/// 333 90710 91011 91111=
02722 26/// ///// 11073 21084 333 4/997 69925=
02724 26/// /2206 10093 20047 30113 40128 57010 333 4/997 60005 90710 91010 91112=
02725 46/// /2401 10051 20042 333 90710 91002 91105=
02726 27558 81204 11044 21065 39598 40067 57006 771// 88/// 333 4/997 69925 90710 91006 91107=
02727 46/// /2402 10084 20052 30013 40112 54000 333 90710 91005 91107=
02732 46/// /2808 10071 20060 39968 40070 52002 333 90710 91010 91110=
02733 46/// /2305 10085 20056 30063 40120 52002 333 90710 91007 91109=
02734 26/// /2405 10075 20066 30014 40108 52002 333 60005 90710 91008 91110=
02735 45/// ///// 10079 20069=
02736 46/// /2503 10074 20072 39960 40096 52002 333 90710 91007 91108=
02737 26/// /2204 10043 20037 39962 40066 51007 333 4/997 60005 90710 91006 91107=
02738 27132 72403 10040 20040 39877 40066 52005 710// 87/// 333 4/998 60005 90710 91006 91106=
02739 27/04 91902 10009 20007 39863 40064 57004 734// 89/// 333 4/998 60005 90710 91002 91102=
02741 24982 02107 10094 20050 30108 40124 57010 70000 80/// 333 4/997 60005 90710 91010 91112=
02743 46/// /2407 10094 20065 333 90710 91010 91112=
02745 26/// /0902 11028 21041 39817 40088 57013 333 4/998 69925 90710 91005 91105=
02746 46/// /2311 10092 20065 30115 40148 57007 333 90710 91013 91115=
02747 46/// /2210 10093 20050 30123 40130 57005 333 90710 91013 91114=
02749 46/// /1105 11019 21021 333 90710 91007 91107=
02750 26/// ///// 10091 20058 333 4/997 60005=
02751 44368 72311 10082 20067 30094 40099 57003 70000 87/// 333 87/11 90710 91013 91115=
02752 46/// /2410 10083 20066 30056 40083 57004 333 90710 91012 91113=
02753 24380 72205 10073 20060 39949 40101 54000 70000 87/// 333 4/997 60005 90710 91008 91111=
02754 27582 52308 10088 20045 30012 40115 54000 700// 81/// 333 60005 85/64 90710 91012 91114=
02755 24150 82203 10051 20049 39965 40060 52003 71065 88/// 333 4/997 60005 85/04 88/06 90710 91005 91107=
02756 26/// ///// 10091 20039 333 60005=
02757 44680 72412 10090 20057 30120 40150 57009 70000 87/// 333 87/39 90710 91013 91115=
02758 46/// /2204 10093 20039 30083 40135 57005 333 90710 91008 91110=
02759 24582 72405 10100 20057 30108 40136 57004 70082 87/// 333 4/997 60005 85/26 87/33 90710 91008 91110=
02761 44474 82214 10082 20061 30076 40111 57003 70000 88/// 333 90710 91016 91117=
02763 27484 8//// 10080 20060 30005 40109 54001 700// 88/// 333 4/997 60005=
02764 26/// /1101 11031 21045 333 69935 90710 91002 91103=
02765 46/// /2307 10083 20061 333 90710 91009 91110=
02766 26/// /1602 10009 20008 39776 40066 333 4/998 69935 90710 91003 91103=
02767 26/// ///// 10081 20043 333 4/997 60005=
02768 27583 8//// 10087 20041 700// 88/// 333 60005 88/45=
02769 24376 72306 10082 20065 39970 40086 54001 70000 87/// 333 4/997 60005 87/11 90710 91008 91110=
02770 27370 8//// 10074 20074 39911 40100 52002 700// 88/// 333 4/997 60005=
02771 262// 8//// 10069 20069 88/// 333 4/997 60005=
02772 46/// /2308 10079 20070 39990 40088 54000 333 90710 91011 91111=
02773 24584 42305 10095 20044 30119 40130 57008 70000 84/// 333 4/998 60005 84/24 90710 91010 91111=
02774 27584 82305 10092 20041 30030 40133 50001 700// 88/// 333 4/997 60005 90710 91012 91112=
02777 24582 82304 10082 20038 39987 40136 57005 70082 88/// 333 4/997 60005 90710 91008 91110=
02778 27363 8//// 10078 39997 40093 54001 700// 88/// 333 4/997 60005=
02780 46/// /2108 10078 20068 30064 40067 57007 333 90710 91010 91110=
02781 46/// /2206 10078 20069 30062 40067 57006 333 90710 91006 91107=
02787 27370 8//// 10060 20054 39865 40073 700// 88/// 333 4/997 60005=
02788 26/// /2606 10061 20049 39957 40070 52004 333 4/997 60005 90710 91008 91109=
02789 24/04 91901 10024 20023 39863 40067 54002 73486 89/// 333 4/998 60005 90710 91002 91103=
02790 44982 02209 10094 20052 30097 40126 57010 70000 80/// 333 90710 91012 91114=
02791 26/// /2402 10045 20045 333 4/997 69925 90710 91005 91105=
02793 46/// /2406 10068 20065 39977 40074 57003 333 90710 91007 91108=
02794 46/// /2310 10090 20061 333 90710 91012 91113=
02795 44575 82411 10086 20065 30137 40150 57006 70082 88/// 333 90710 91013 91114=
02796 26/// /0000 10018 20017 333 4/998 69925 90710 91001 91101=
02797 45/// ///// 10033 20032=
02798 24/16 9//// 10013 20012 71076 89/// 333 4/998 60005=
02799 24120 71101 11001 21004 39821 40067 57011 78087 87/// 333 4/998 60005 87/05 90710 91002 91104=
02800 46/// /2408 10057 20039 30019 40047 58002 333 90710 91009 91109=
02801 27432 81004 11051 21084 39463 40064 771// 88/// 333 4/997 69925 88/29 90710 91007 91107=
02803 26/// /2101 10028 20028 39994 40054 54001 333 4/998 60005 90710 91002 91102=
02804 27330 81002 11008 21017 771// 88/// 333 4/997 69935 88/30 90710 91003 91104=
02805 24784 73602 11064 21074 39970 40109 57014 70082 85/// 333 4/998 60005 87/57 90710 91003 91104=
02807 47659 80404 11059 21070 39904 40093 771// 88/// 333 90710 91005 91105=
02811 26/// ///// 11010 21014 333 4/997 69975=
02812 26/// /1002 10000 21004 333 4/997 69925 90710 91004 91104=
02813 262// 81101 11009 21009 39927 40061 88/// 333 4/997 69925 90710 91002 91103=
02814 24338 71102 11020 21029 39806 40067 57010 77170 87/// 333 4/997 69915 83/09 87/11 90710 91004 91105=
02815 46/// /1301 11024 21033 333 90710 91005 91105=
02816 24/23 91002 11048 21056 39767 40082 57016 77170 89/// 333 4/998 69945 90710 91005 91106=
02817 46/// /0905 11082 21091 39537 40091 57014 333 90710 91006 91107=
02818 46/// /0806 11070 21079 39772 40097 57014 333 90710 91009 91109=
02819 26/// ///// 11082 21089 333 4/997 69925=
02820 46/// /1207 11067 21074 39133 40069 57004 333 90710 91009 91110=
02821 44/02 /1106 11054 21056 39368 40057 57007 77270 333 90710 91007 91107=
02824 262// 81102 11035 21039 39628 40064 57009 88/// 333 4/001 69935 87/22 88/50 90710 91004 91104=
02825 26/// /0000 11079 21092 30085 40116 57015 333 4/998 60005 90710 91000 91101=
02827 46/// /1103 11037 21053 333 90710 91005 91106=
02828 26/// ///// 10091 20034 30126 40134 57006 333 4/997 60005=
02829 27582 8//// 10091 20049 30027 40135 54001 700// 88/// 333 4/997 60005=
02830 26/// ///// 10096 20053 333 4/997 60005=
02831 26/// /2408 10090 20068 333 60005 90710 91014 91116=
02832 26/// ///// 10074 20069 333 4/997 69975=
02833 26/// /2205 10084 20071 30035 40074 54002 333 4/997 60005 90710 91007 91108=
02834 47/01 92402 10017 20017 39811 40065 52002 733// 89/// 333 4/998 90710 91003 91104=
02835 27656 81004 11051 21066 39942 40098 57013 771// 88/// 333 4/998 69915 90710 91006 91107=
02836 24342 71303 11021 21033 39844 40070 57012 77170 87/// 333 4/997 69935 85/10 87/26 90710 91006 91106=
02844 24156 81302 10001 21004 39941 40048 57005 75187 88/// 333 4/997 60005 85/06 88/08 90710 91004 91105=
02845 27/50 ///// 11014 21016 785// 333 4/997 69915=
02847 44340 81102 11003 21012 39955 40058 57006 78187 88/// 333 88/10 90710 91003 91104=
02849 27325 81103 11014 21026 39801 40076 57013 771// 88/// 333 4/997 69935 88/35 90710 91008 91108=
02850 27360 82405 10078 20070 39979 40082 54001 752// 88/// 333 4/997 69925 90710 91008 91110=
02851 27/07 91601 10018 20018 30039 40054 54001 751// 89/// 333 4/998 60005 90710 91002 91102=
02857 27214 80903 11056 21066 39720 40082 57014 771// 88/// 333 4/997 69935 88/25 90710 91006 91107=
02858 26/// /0901 11054 21061 333 4/998 60005 90710 91003 91103=
02859 26/// /1101 11006 21006 333 4/997 60005 90710 91002 91103=
02860 26/// /1002 11023 21032 333 4/997 69925 90710 91003 91104=
02862 44133 81305 10021 20019 30041 40046 57006 75276 88/// 333 88/04 90710 91007 91107=
02863 46/// /1706 10043 30018 40039 57004 333 90710 91007 91107=
02864 47143 81103 10006 20006 30033 40049 751// 88/// 333 90710 91005 91105=
02866 24260 81202 10003 21003 39909 40061 57004 77170 88/// 333 4/997 69915 88/06 90710 91004 91104=
02868 46/// /1110 11038 21042 333 90710 91012 91112=
02869 47233 81104 11022 21032 39743 40076 771// 88/// 333 88/22 90710 91005 91106=
02872 44/29 /1904 10045 20043 30048 40055 54000 72065 333 90710 91005 91105=
02873 47/04 91504 10025 20025 30039 40052 733// 89/// 333 90710 91006 91106=
02874 26/// ///// 10020 20019 333 4/998 60005=
02876 47/09 /1602 10016 20016 30049 40057 734// 333 90710 91003 91104=
02880 27124 81003 10008 20006 30032 40043 57007 751// 88/// 333 4/997 69925 90710 91004 91104=
02881 27282 81402 11002 21002 39857 40059 57005 700// 88/// 333 4/997 60005 90710 91004 91104=
02882 46/// /1001 11035 21043 39641 40067 57009 333 90710 91003 91103=
02883 27113 82302 10016 20014 39861 40061 55002 710// 88/// 333 60005 90710 91003 91103=
02888 46/// /1207 11030 21042 39944 40098 57012 333 90710 91008 91109=
02889 27256 81202 11006 21010 39786 40064 57008 771// 88/// 333 4/997 69935 83/08 88/33 90710 91003 91105=
02897 47106 82102 10017 20016 39895 40062 734// 88/// 333 90710 91003 91103=
02903 47384 72204 10065 20050 30031 40064 700// 87/// 333 90710 91006 91106=
02906 26/// /2407 10093 20040 333 4/997 60005 90710 91014 91114=
02907 46/// /2308 10052 20042 30048 40054 54001 333 90710 91010 91111=
02910 46/// /2404 10075 20064 30025 40058 58004 333 90710 91005 91106=
02913 27481 62304 10085 20060 30020 40069 57002 700// 86/// 333 60005 86/43 90710 91005 91107=
02915 24384 82803 10054 20044 39915 40076 52006 70086 88/// 333 4/997 60005 90710 91006 91107=
02917 47359 82704 10064 20056 39954 40072 721// 88/// 333 90710 91006 91107=
02919 46/// /2310 10080 20054 30018 40114 54000 333 90710 91012 91112=
02920 46/// /0000 10064 20051 30037 40060 57002 333 90710 91000 91111=
02924 27470 8//// 10073 20071 39885 40083 52002 700// 88/// 333 4/997 60005=
02926 27479 82205 10082 20061 30095 40108 57004 700// 88/// 333 4/997 60005 90710 91010 91111=
02927 26/// /2404 10065 20062 39805 40082 52004 333 4/997 60005 90710 91007 91108=
02928 27250 8//// 10065 20064 39978 40076 781// 88/// 333 4/997 69925=
02929 47232 82504 10067 20064 39926 40074 781// 88/// 333 90710 91006 91107=
02931 27368 72111 10084 20072 30075 40082 58004 700// 81/// 333 60005 87/60 90710 91012 91113=
02935 26/// /2502 10074 20066 39915 40086 52004 333 4/997 60005 90710 91006 91106=
02937 27480 72305 10087 20053 30066 40114 57002 700// 87/// 333 4/997 60005 90710 91007 91110=
02939 24157 72304 10040 20040 39878 40070 57011 76165 87/// 333 4/997 69945 87/05 90710 91005 91105=
02942 41480 82204 10075 20059 39946 40094 50002 70222 805// 91140 333 31///=
02943 46/// /2208 10083 20055 39985 40105 54000 333 90710 91012 91112=
02944 47483 82306 10077 20058 39972 40111 700// 88/// 333 90710 91008 91109=
02945 47380 82405 10074 20065 39924 40101 700// 88/// 333 90710 91007 91109=
02946 26/// ///// 10074 20062 333 4/997 60005=
02947 27362 82404 10076 20066 39981 40103 52002 700// 88/// 333 4/997 60005 90710 91007 91109=
02948 47245 82406 10079 20072 39976 40090 761// 88/// 333 90710 91010 91110=
02949 26/// /2304 10075 20054 333 4/997 60005 90710 91009 91114=
02950 26/// /2209 10093 20052 30130 40136 57009 333 60005 90710 91013 91114=
02955 24458 82804 10067 20057 39965 40068 54002 75286 88/// 333 4/997 60005 85/21 88/26 90710 91006 91107=
02956 46/// ///// 10088 20050 30003 40125 54001 333 4/997=
02957 27981 72304 10097 20068 30059 40070 57004 700// 80/// 333 4/997 60005 90710 91007 91107=
02958 47582 82305 10081 20058 39991 40121 700// 88/// 333 90710 91007 91109=
02959 27582 8//// 10081 20064 39992 40119 54001 700// 88/// 333 4/997 60005=
02963 24582 72306 10084 20044 30000 40128 54001 70000 87/// 333 4/997 60005 87/27 90710 91010 91111=
02966 47786 42408 10087 20047 39999 40123 700// 84/// 333 84/68 90710 91012 91112=
02967 47674 42412 10090 20064 30138 40142 50001 700// 81/// 333 83/61 84/69 90710 91015 91116=
02970 47984 02107 10093 20045 30123 40127 700// 80/// 333 90710 91009 91110=
02974 24585 72409 10097 20036 30079 40138 70222 8757/ 333 31/// 60005 87/69 90710 91012 91115=
02976 27576 72309 10090 30123 40139 50001 700// 87/// 333 4/997 60005 90710 91015 91115=
02978 24582 72406 10098 20050 30141 40146 57005 70020 87/// 333 4/997 60005 87/36 90710 91010 91112=
02979 46/// /2313 10095 20057 30115 40134 57015 333 90710 91016 91117=
02980 44576 52309 10091 20061 30117 40129 57011 70000 85/// 333 90710 91010 91111=
02981 27476 72309 10096 20069 30132 40142 57011 700// 87/// 333 60005 90710 91011 91113=
02982 46/// /2414 10093 20055 30141 40152 57009 333 90710 91017 91117=
02983 24583 8//// 10086 20043 30001 40139 57003 70086 88/// 333 4/997 60005=
02984 44582 82510 10087 20062 30134 40146 57009 70000 88/// 333 90710 91012 91114=
02985 27581 82308 10100 20047 30134 40143 57005 700// 87/// 333 4/997 60005 88/69 90710 91013 91115=
02986 27582 72305 10089 20057 30025 40138 57006 700// 87/// 333 4/997 60005 90710 91012 91116=
02987 46/// /2313 10092 20057 30116 40144 57007 333 90710 91015 91117=
02989 46/// /2311 10089 20059 30120 40145 57007 333 90710 91012 91114=
02991 46/// /2613 10089 20060 30118 40144 333 90710 91017 91117=
02992 47470 82310 10089 20065 30139 40143 57005 700// 88/// 333 90710 91015 91117=
02993 46/// /2309 10091 20049 30094 40112 57012 333 90710 91010 91111=
02994 46/// /2306 10101 20054 333 90710 91011 91114=
02998 24581 72208 10096 20051 30112 40143 57005 70082 85/// 333 60005 85/35 87/69 90710 91012 91113=
03002 15574 /2016 10113 20075 39958 49976 52004 69921 333 81/21=
03005 12480 32220 10102 20085 39880 49979 51003 60001 82872 333 55304 20701 82819 90710 91128=
03008 12465 22220 10110 20079 39914 49985 54000 60001 82800 333 81818 90710 91129=
03023 15580 /2720 10109 20056 30017 40022 53021 60011 333 81/32 90710 91130=
03026 17681 /2611 10087 20076 39980 49998 53029 60081 723// 333 55300 20181 83/45 86/60 90710 91128=
03031 07461 82617 10084 20053 39692 40013 53009 60061 760// 88/// 333 55301 20712 60025 81/18 88/24 91019 90710
03034 17657 /2416 10088 20066 30002 40015 53019 60041 762// 333 85/38 86/50 91027 90710 91130=
03039 46/// ///// 10027 20027 333 91000=
03044 064// 82112 10087 20066 39900 49998 53009 69981 88/// 333 55305 20591 69965 88/19 91021 90710 91124=
03047 17547 /2212 10082 20053 39746 40045 53010 60021 762// 333 55302 20732 85/32 86/42 91022=
03062 15580 /2216 10116 20059 30002 40007 53006 69921 333 553// 20958 81/28 83/39=
03063 17589 /2306 10086 20050 39751 40024 53005 69901 723// 333 55306 21010 82/23 86/33 91017=
03066 15984 /2220 10118 20046 30007 40013 53003 60001 333 55310 21049 81/75 91031 90710 91131=
03068 12586 22318 10115 20041 30004 40013 52003 60001 82830 333 81828 90710 91128=
03072 46/// /2329 10023 20023 333 90710 91142=
03075 15977 /2120 10109 20059 39950 49993 57001 60001 333 8/58 91030 90710 91130=
03080 05689 12318 10106 20037 39861 40029 50000 60001 81/// 333 60005 81/45 91024 90710 91125=
03088 05581 22423 10106 20061 39877 40038 52002 60001 82/// 333 553// 21050 60005 82/20 91028 90710 91131=
03092 46/// /2216=
03100 17678 /2618 10104 20063 30031 40047 52020 60021 723// 333 55305 20787 81/41 90710 91131=
03105 17569 /2319 10112 20085 30051 40068 53011 60041 723// 333 81/21 85/27 90710 91127=
03111 167// /2518 10117 20064 30060 40072 51010 60001 333 81/50 90710 91127=
03132 15573 /2414 10119 20074 30075 40089 52007 60001 333 81/23=
03134 15583 /2414 10121 20060 39992 40063 53009 69901 333 55304 20996 82/29 84/38 90710 91126=
03136 155// /2319 10112 20067 30043 40076 53011 60001 333 55307 21042 85/20 83/56 90710 91125=
03144 07489 12311 10106 20070 30011 40054 52009 69981 721// 81/// 333 553// 20818 60005 81/18 91022 90710 91125=
03148 46/// /2417 10059 20027 333 91028 90710 91132=
03153 05578 82511 10110 20072 39951 40087 52011 60001 88/// 333 55302 20967 60005 87/20 83/38 84/50 91024
03155 06582 82516 10092 20059 39778 40072 52008 60001 88/// 333 60005 88/20 91025 90710 91130=
03158 15586 /2416 10115 20057 39932 40066 51005 60001 333 55310 21282 82/29=
03162 17580 /2408 10096 20062 39801 40084 53008 69961 723// 333 55305 20949 81/27=
03166 15576 /2414 10119 20064 39995 40063 53008 69901 333 55308 21025 83/28=
03171 15670 /2417 10116 20062 30038 40050 53002 60001 333 55305 20984 85/42 90710 91126=
03204 12582 32517 10126 20077 30083 40102 53006 60001 83801 333 55309 21378 83820=
03210 16575 /2417 10115 20077 39949 40098 52007 60001 333 83/20=
03212 07565 82610 10128 20066 39998 40095 52005 69921 761// 88/// 333 60005 87/27 86/50 91015 90710 91119=
03214 15573 /2615 10132 20073 30087 40105 53009 69901 333 83/26=
03220 06580 5//// 10123 20072 30056 40089 52007 60021 85/// 333 60005 83/25 82/41=
03224 17480 /2616 10085 20065 39742 40084 53004 60011 723// 333 81/17 84/29=
03225 16581 /2411 10099 20060 39796 40098 53006 69941 333 55304 20821 81/33 84/45 91021=
03226 05583 62509 10102 20063 39823 40095 53005 60001 86/// 333 60005 81/31 85/43 91014 90710 91120=
03227 46/// /2631 10038 333 90710 91138=
03230 06585 52309 10101 20056 39828 40081 52003 60011 85/// 333 60005 85/23 91019 90710 91121=
03238 17563 /2607 10106 20067 39913 40084 53006 69901 761// 333 83/28 91017=
03240 15573 /2211 10112 20074 30052 40080 53003 60001 333 55300 20588 81/23=
03257 11482 72208 10126 20086 30063 40103 53007 69901 70281 82802 333 55303 20979 81818 87075=
03265 17661 /2709 10120 20082 30076 40107 53005 69901 781// 333 82/34 87/42=
03275 165// /2313 10107 20085 39906 40096 53003 69941 333 81/22 86/50=
03281 16/// /2215 10109 20082 60001=
03292 164// /2211 10136 20091 30087 40105 54000 60001 333 83/16 84/56=
03301 16781 /2414 10125 20073 30048 40120 51008 60001 333 85/50=
03302 12582 52417 10130 20081 30105 40119 51008 60001 85800 333 55305 21128 81825 85657=
03305 05584 82415 10121 20065 39863 40122 52005 69981 88/// 333 60005 88/26 91024 90710 91124=
03313 16984 /2707 10131 20064 30029 40121 53008 60001=
03316 069// 22518 10131 20083 30106 40117 52006 60001 82/// 333 60005 82/63 91023 90710 91123=
03318 16/// /2717 10134 20092 69921=
03321 15880 /2506 10132 20070 30112 40124 53007 69901 333 55300 20670 82/57 84/65=
03330 07480 82511 10107 20077 39768 40125 51007 60001 723// 88/// 333 60005 85/12 87/43 91014 90710 91114=
03344 07459 82410 10102 20064 39798 40112 53005 60001 761// 88/// 333 60005 88/18 91025 90710 91125=
03346 06/// /2513 10115 20061 60001 333 60005 91021 90710 91123=
03351 15586 /2505 10129 20085 30079 40121 53007 69921 333 55301 20799 81/31 83/44=
03354 17522 /2611 10120 20078 39986 40126 53004 69981 763// 333 55304 20925 82/25 84/50=
03373 16588 /2913 10127 20087 30049 40118 52001 60001 333 82/21=
03377 12575 52411 10139 20082 30040 40122 52001 60001 85801 333 55304 20882 83824=
03379 12582 52316 10146 20100 30048 40123 56001 69921 83802 333 83820=
03382 15583 /2207 10135 20094 30099 40108 54000 60001 333 55303 20789 83/31 84/56=
03385 46573 /2214 10139 20092 30108 40118 53001 333 81/33 84/57=
03391 12581 62312 10150 20097 30116 40123 56001 60001 83132 333 83825 85358=
03392 06483 82314 10141 20108 30120 40123 58003 60001 88/// 333 60005 83/18 84/50 84/57 91018 90710 91120=
03405 16579 /3219 10130 20083 30015 40129 51005 60001 333 55310 21426 83/22 90710 91125=
03409 06/// /2510 10114 20067 39928 40124 53006 60041 333 55303 60005 91016 90710 91120=
03410 06402 82313 10116 20077 39696 40123 53007 60041 88/// 333 55307 21393 60005 88/16 91017 90710 91119=
03414 12582 62409 10130 20075 30041 40128 52007 60001 81838 333 55301 20736 81820 86275=
03462 16/// /2312 10142 20094 30040 40127 55000 60001 333 55303 20847=
03469 15880 /2313 10143 20110 30124 40128 57001 69901 333 553// 21082 87/57=
03482 12475 52212 10142 20105 30109 40135 57001 60001 85100 333 82715 84820 85850=
03488 05781 12212 10148 20107 30105 40130 57002 60001 81/// 333 55306 60005 81/50 91019 90710 91119=
03502 17565 /2613 10124 20089 39977 40137 51006 69941 723// 333 55305 21213 81/21 85/31=
03503 15575 /2408 10122 20081 30060 40137 53007 69981 333 81/26=
03507 17982 /2509 10113 20087 39771 40138 52005 69901 723// 333 82/58 83/72=
03520 06580 83106 10137 20078 30016 40134 52003 60001 88/// 333 55308 21774 60005 88/27 91013 90710 91117=
03522 17959 /2606 10146 20086 30048 40139 52004 69901 710//=
03529 05572 72407 10151 20102 30098 40140 52003 60001 87/// 333 60005 87/21 91014 90710 91114=
03535 065// 12404 10148 20096 30014 40129 52003 60001 81/// 333 553// 21120 60005 81/20 91015 90710 91117=
03544 05486 82506 10131 20086 30006 40134 52005 60001 88/// 333 553// 21070 60005 88/17 91011 90710 91115=
03560 05482 62307 10141 20104 30034 40136 57002 60001 86/// 333 553// 20655 60005 86/15 91013 90710 91117=
03590 12580 52310 10146 20108 30032 40140 57004 60001 82431 333 55303 21119 82620 84363=
03604 16512 /2811 10124 20096 30091 40144 53010 60021 333 81/21 83/25=
03605 16968 /2707 10142 20105 30136 40144 52007 69941=
03609 16/// /2510 10147 20101 30099 40151 52007 69941=
03647 06483 82412 10138 20102 39887 40136 52002 60001 88/// 333 553// 21309 60005 84/13 83/21 83/56 91017
03649 12480 62407 10148 20093 30043 40141 55000 60001 868// 333 55303 84618=
03658 11580 22508 10138 20104 30076 40145 55000 69901 72581 82801 333 82820=
03660 17450 /2704 10120 20106 39902 40147 53001 60011 783// 333 84/17 84/32=
03672 12580 42711 10155 20104 30107 40147 56002 60001 82101 333 82820 83073=
03684 17480 /2313 10145 20105 30036 40140 58003 60001 720// 333 81/19 83/62=
03693 15969 /2409 10161 20117 30145 40147 57003 69921 333 55307 82/61=
03707 15566 ///// 10150 20093 30145 40152 53007 60011 333 83/24=
03710 16577 /2507 10136 20104 39735 40146 52004 69981 333 55307 21346 82/22=
03716 17581 /2613 10144 20108 30086 40145 51007 60041 723// 333 55301 20636 84/25=
03740 064// 42716 10120 20084 39975 40149 53003 69921 84/// 333 55305 20936 69925 81/16 82/20 81/34 91020
03743 16982 /2409 10147 20100 39991 40148 53002 60001=
03746 11584 32610 10140 20092 39998 40149 55000 69921 70241 82201 333 82820=
03749 12582 22407 10153 20115 30041 40149 55000 60001 82201 333 82821=
03761 12481 52312 10137 20105 30008 40150 55000 69921 82362 333 55305 21085 83357 82916=
03768 16864 /2311 10145 20104 30071 40149 56001 69941 333 83/57=
03769 17579 /2307 10160 20119 30069 40148 57001 69921 723// 333 55303 20919 81/28 84/50=
03770 16/// ///// 10158 20101 60001=
03772 17513 /2508 10151 20103 30117 40147 57001 69921 704// 333 55307 21161 81/21 83/50=
03781 15483 /2409 10138 20101 39946 40149 57001 69901 333 553// 20923 81/17=
03796 46/// /2305 10130 20107 30016 40157 58003 333 91015 90710 91121=
03797 157// /2109 10142 20117 30095 40154 57002 69921 333 55301 20633 82/56=
03803 15580 /2614 10151 20102 30130 40167 52008 60001 333 81/23=
03808 11481 72411 10138 20096 30060 40165 51006 69981 70381 86231 333 55306 21321 81819 86821 86358=
03809 16873 /2407 10147 20108 30072 40163 52006 60001 333 83/57=
03823 15482 /2510 10137 20096 39919 40157 52006 69941 333 553// 21195 81/19 84/56=
03827 15875 /2411 10154 20112 30102 40162 51007 69921 333 85/57=
03840 17471 /2708 10128 20091 39852 40153 52005 69921 723// 333 84/15=
03853 11465 62610 10146 20089 30129 40152 53005 69921 78081 83230 333 55301 20843 81712 85357=
03857 15471 /2714 10151 20117 30096 40158 53007 69941 333 83/14=
03862 17482 /2506 10149 20106 30142 40154 52003 60041 723// 333 55307 21259 81/17=
03866 16/// /2619 10140 20118 30132 40156 53002 60041 333 90710 91127=
03872 17426 /2713 10135 20108 30152 40156 53002 60021 782// 333 553// 21120 85/17 91023=
03876 16/// /2110 10161 20134 30154 40156 57002 69961=
03882 17781 /2305 10140 20121 30094 40157 51001 60051 723// 333 55303 20797 82/56 86/60=
03894 11475 22613 10151 20130 40175 50001 60011 72581 82901 333 81912=
03895 17459 /2413 10152 20133 30076 40177 50002 69901 782// 333 55308 21624 85/10 84/65=
03901 15580 /2411 10113 20067 30004 40091 53008 60001 333 55310 21287 81/25=
03904 07581 82109 10125 20085 30025 40084 52007 60011 723// 88/// 333 69925 88/20 91015 90710 91116=
03907 15975 /2216 30073 53010 69901 333 55310 21077 8/58=
03911 15970 /2410 10097 20061 39820 40091 53010 69901=
03915 05578 42108 10100 20063 30006 40084 52007 60001 84/// 333 60005 82/21 82/56 91013 90710 91116=
03916 15980 /2614 10102 20060 39891 40079 52009 60001 333 553// 21260 8/58=
03917 15982 /2311 10110 20063 30015 40091 52008 60001 333 55310 21403 8/58=
03923 05480 42605 10104 20065 39900 40093 52008 60001 84/// 333 60005 84/19 91014 90710 91117=
03951 17668 /2506 10136 20092 30115 40141 53009 69971 70386 81/// 333 81/44 81/50=
03952 17580 /2505 10126 20081 30086 40135 52006 69911 7038/ 83/// 333 83/25=
03953 17579 /2505 10127 20091 30106 40137 50010 60011 72285 85/// 333 81/23 85/39=
03955 11480 42305 10120 20081 39940 40135 52006 69901 71581 84802 333 84819 83075=
03956 15578 /2305 10132 20079 30052 40128 50002 60001 81/// 333 81/22=
03961 15680 /2405 10124 20071 30046 40122 52002 69911 81/// 333 81/36 81/72=
03962 11470 52205 10123 20112 30101 40125 53010 60011 70281 85301 333 81717 84645 81920=
03963 17/63 /2608 10125 20072 30083 40111 50013 69941 7018/=
03966 17477 /2305 10121 20090 30025 40117 52007 69921 7018/ 85/// 333 85/15=
03967 11584 32307 10121 20072 30000 40112 50005 69901 70181 82801 333 81822=
03969 11484 42506 10117 20063 30009 40112 53002 69901 70381 83802 333 81819 83822=
03970 16/// /2405 10106 20077 30024 40107 53011 69931=
03971 17480 /2304 10117 20071 39988 40109 53008 69911 7035/ 86/// 333 86/19=
03973 11461 72405 10106 20073 39852 40103 53010 69901 78081 86932 333 81716 83635 82920=
03976 17569 /2507 10125 20065 30083 40094 52012 69941 70385 85/// 333 85/24=
03978 17562 /2407 10122 20069 30049 40091 53009 69951 70381 86/// 333 86/27=
03979 15581 /2305 10119 20065 30002 40097 50007 60001 84/// 333 84/23=
03980 17577 /2511 10108 20058 30047 40071 52013 60021 70185 83/// 333 83/28=
04005 26/// /0317 10010 21014 49969 57004 333 10013 20010 69917=
04013 42589 70313 10027 21009 49942 52006 82520=
04018 41462 80608 10042 20019 49916 52006 75865 8672/=
04030 42682 71007 10046 21002 49915 52005 83527=
04038 26/// /0312 10043 20003 49912 52006 333 10043 20043 60005=
04048 26/// /1810 10068 20062 333 10070 20068 60037=
04063 42575 73308 10023 20010 49920 57014 84434=
04077 26/// /2616 10018 20010 49884 57013 333 10019 20018 69927=
04082 26/// /3321 10049 21005 49898 52009 333 10050 20049 69907=
04097 42589 43210 10050 21021 49893 53009 822/1=
04104 26/// /0727 10031 20000 49932 52006 333 10033 20031 69907=
04130 26/// /1007 10046 21002 49915 52004 333 10046 20045 69937=
04165 26/// /3019 10015 20014 49900 57025 333 10018 20014 60005=
04197 26/// /3210 10050 21021 49893 52009 333 10052 20048 60005=
04203 45/// /3504 11080 21124 30046 40064=
04205 45/84 /3102 11128 21237 30046 40071 52001=
04208 45/// /1118 11049 21102 30017 40064=
04211 45/82 /0808 11078 21140 39913 40076 52007=
04213 45681 42413 11058 21140 39952 40065 52008 333 84/34=
04214 45/// /0309 11055 21130 30030 40063=
04220 05584 50506 11042 21088 30002 40055 52009 6///1 333 55300 20032 6///7 85/21=
04221 47/// /1404 11133 21199 30012 40056 52009 785//=
04224 45582 60405 11040 21091 30019 40053 52009 333 86/22=
04228 45/// /0805 11037 21073 30033 40047=
04231 45984 30607 11173 21213 39988 40066 52012 333 83/69=
04234 45/83 /0602 11085 21136 30030 40041 52009=
04241 45980 03609 11028 21143 39949 49987 52003=
04242 45/// /0316 11031 21095 39969 49985=
04250 06/// 00115 11059 21153 39860 49966 57001 69911 333 55300 20058 69917=
04253 45/// /3427 11023 21090 39878 49905=
04254 45/80 /0318 11061 21156 39848 49963 57003=
04260 47/// /0014 11027 21155 39855 49902 57006 710//=
04266 45/// ///// 11012 21105 39836 49874=
04270 45984 02403 11039 21084 39829 49868 57005=
04272 06/// ///// 39794 57003 6///1 333 6///7=
04285 45/// /3210 11004 21036 39841 49860=
04301 45/// ///// 11208 21231 30078 40083=
04312 45/// /1816 11096 21128 30128 40171=
04313 45/// /1507 11109 21121 30188 40200=
04320 47457 81003 11092 21107 30167 40182 57009 77187 333 55300 20018 81/12 83/15 88/37=
04330 45/// /3318 11052 21111 30147 40165=
04339 47450 70105 11015 21048 39975 40065 57016 77487 333 55300 20029 81/17 87/23 91123 91218=
04341 466// 83330 11031 21067 30077 40091 57017 333 88/35 91139=
04351 45/// /3106 11018 21019 30015 40032=
04360 07438 70408 11007 21032 39902 49972 52028 60011 77177 333 55300 20090 69977 83/16 85/22 87/26 91019 91132=
04373 45/// ///// 11014 21014 39857 49951=
04382 45/// /0002 39809 49857=
04390 45/// /2808 11011 21034 39740 49850=
06019 06/// /1911 10112 20108 69961 333 55300 20443 69967=
06030 07/60 /1909 10109 20097 30109 40125 57006 69901 78188 333 6///7=
06031 06/// /1906 10104 20094 69951 333 55300 20338 69957=
06032 45/// /1808 10112 20090 30059 40127 57007=
06041 07662 52016 10111 20091 30117 40122 57008 6///1 70010 333 55300 20526 6///7 81/45 85/58=
06049 47558 72010 10102 20083 30029 40137 57006 78186 333 83/28 85/34 87/43=
06052 07/64 /2109 10137 20113 30116 40120 57004 60021 70086 333 60027=
06056 46/// /2009 10108 20108 30063 40127 57005 333 55300 20166=
06058 07257 51917 10119 20116 30123 40128 57005 60041 72386 333 55302 20432 60047 81/04 83/07 85/11 91128=
06060 07361 81809 10113 20096 30068 40132 57006 69941 72388 333 69947 88/09=
06065 25/// /1909 10107 20100 30088 40129 57007 333 69947 555 69945=
06068 06/// /1807 10105 20091 30063 40138 57006 6///1 333 55300 20216 6///7=
06070 05/64 /1905 10113 20085 30119 40149 57006 6///1 333 6///7=
06072 25/// /1810 10102 20079 30065 40140 57008 333 60007 555 60005=
06073 45/// /2116 10099 20086 30140 40147 57007=
06074 06659 81809 10105 20083 30076 40144 57008 69941 333 69947 81/35 87/57 88/61=
06079 05/63 /2016 10102 20102 30138 40142 57008 6///1 333 55306 20900 6///7=
06081 45/// /1911 10128 20116 30112 40134 57006=
06082 25/// /1909 10109 20098 333 69937 555 69925=
06093 45/// /1715 10106 20095 30141 40146 57004=
06096 47360 81912 10105 20091 30135 40146 57004 70010 333 85/07 88/09=
06102 25/// /1805 10103 20090 30118 40148 57006 333 60007 555 60005=
06104 252// 81808 10098 20088 30050 40146 57006 333 69907 88/06 555 60005=
06108 46/// /2005 10097 20088 30096 40151 57006=
06109 06/// /1906 10093 20093 6///1 333 55300 20241 6///7=
06110 21362 72008 10101 20084 30092 40149 57009 72162 87531 333 69907 81708 85617 86656 555 60005=
06119 05/69 02006 10113 20076 30137 40160 57008 6///1 333 6///7 91219=
06120 45666 11908 10120 20098 30127 40153 57011 333 81/45=
06123 47/64 /2009 10106 20085 30151 40155 57008 70010 333 55304 20947=
06124 45/63 /2004 10101 20078 30155 40164 57007=
06126 25/// /2106 10112 20083 30093 40155 57010 333 60007 555 60005=
06135 47462 32009 10097 20084 30117 40159 57009 70010 333 55305 20943 81/12 83/74=
06136 06/// /2007 10097 20078 6///1 333 55304 20846 6///7=
06138 45/// /2113 10067 20040 30162 40167=
06141 07968 12010 10105 20078 30155 40166 57007 6///1 70010 333 55310 21422 6///7 81/74=
06147 05/68 /2110 10111 20076 30164 40170 57007 6///1 333 6///7=
06149 06/// /2113 10095 20070 30166 40172 57006 6///1 333 55307 21116 6///7=
06151 45/// /2014 10126 20090 30157 40161 57010=
06154 27/65 /2109 10099 20074 30106 40162 57010 333 60007 555 60005=
06156 07970 31909 10112 20081 30139 40155 57010 6///1 70010 333 55309 21242 6///7 83/61=
06159 05/64 /2012 10116 20085 30133 40152 57007 69911 333 69917=
06168 45/// /2004 10107 20064 30104 40157 57009=
06169 05/67 /2113 10109 20083 30133 40152 57008 6///1 333 6///7=
06170 254// 22108 10098 20070 30109 40161 57010 333 69917 82/13 555 60005=
06174 07/57 /2009 10103 20067 30134 40161 57010 6///1 71011 333 55305 20958 6///7=
06180 05/80 01910 10108 20072 30160 40166 57008 6///1 333 6///7=
06181 45/// /2004 10108 20071 30110 40161 57008=
06183 45/80 /2113 10097 20068 30146 40164 57007=
06188 05/75 02005 10117 20069 30109 40159 57009 6///1 333 55307 21048 6///7=
06193 05/76 /2313 10102 20067 30163 40175 57004 6///1 333 55310 21177 6///7 91124=
06197 25/// /2214 10097 20074 30149 40180 57009 333 60007 555 60005=
06201 47475 72407 10132 20101 30075 40118 57/// 87/// 333 91009 90760 91110=
06203 47968 12310 10150 20111 30122 40151 58/// 70286 81/// 333 91011 90760 91112=
06204 47473 32309 10146 20112 30098 40130 56/// 78185 83/// 333 91010 90760 91111=
06205 47968 72311 10128 20106 30065 40105 56/// 87/// 333 91012 90760 91114=
06207 47563 52108 10145 20124 30114 40149 56/// 70381 85/// 333 91009 90760 91114=
06208 47156 82108 10110 20107 30120 40152 57/// 71085 88/// 333 91010 90760 91112=
06209 45/// /2208 333 91010 90760 91111=
06211 47879 72205 10129 20106 30091 40133 55/// 87/// 333 91007 90760 91109=
06212 47575 32206 10149 20112 30097 40146 56/// 70386 83/// 333 91008 90760 91109=
06225 45/// /1909 333 91011 90760 91111=
06229 45/// /2009 333 91012 90760 91113=
06235 07465 72107 10146 20126 30150 40150 56/// 60001 70181 87/// 333 55/// 20589 553// 20961 60005 91010 90760
06239 47472 72310 10135 20108 30088 40117 56/// 87/// 333 91011 90760 91118=
06240 07250 82105 10117 20110 30166 40162 58/// 69941 71081 88/// 333 55/// 20454 553// 20287 60005 91007 90760
06242 47466 72107 10147 20121 30134 40147 56/// 70181 85/// 333 91010 90760 91111=
06248 45/// /1906 333 91007 90760 91110=
06249 07/50 /2005 10119 20114 69931 71081 333 55/// 20487 553// 20478 60005 91007 90760
06257 05/// ///// 10125 20118 69921 333 55/// 20435 553// 20233 60005=
06251 07/36 /1908 10123 20121 30147 40149 56/// 60001 71051 333 55/// 20562 553// 20793 60005 91010 90760
06252 45/// /2309 10142 20117 333 91010 90760 91111=
06260 07358 82103 10117 20107 30165 40169 56/// 60011 71085 88/// 333 55/// 20522 553// 20401 60005 91004 90760
06267 07129 81907 10110 20109 69961 71085 88/// 333 55/// 20546 553// 20536 60005 91009 90760
06269 07256 82106 10108 20103 30173 40167 56/// 60011 71085 88/// 333 55/// 20512 553// 20347 60005 91007 90760
06270 07250 82005 10112 20109 30156 40156 58/// 69931 71085 88/// 333 55/// 20450 553// 20334 60005 91007 90760
06273 07/60 /2104 10107 20101 60021 7//85 333 55/// 20442 553// 20259 60005 91006 90760
06275 07474 81904 10126 20098 30115 40172 58/// 60001 70251 88/// 333 55/// 20569 553// 20700 60005 91006 90760
06277 05/// /2005 10108 20102 60001 333 55/// 20469 553// 20389 60005 91008 90760
06278 05/// /2003 10115 20088 60001 333 55/// 20550 553// 20806 60005 91006 90760
06279 07376 82105 10108 20095 30147 40169 57/// 69911 72281 88/// 333 55/// 20476 553// 20476 60005 91006 90760
06280 07250 81905 10103 20097 30159 40164 56/// 69961 78185 88/// 333 55/// 20462 553// 20304 69915 91007 90760
06283 05/// /1904 10113 20078 60001 333 55/// 20583 553// 20451 60005 91006 90760
06285 45/// /2008 333 91009 90760 91111=
06286 05/// /2006 10100 20100 69911 333 55/// 20523 553// 20305 69915 91008 90760
06290 07579 81904 10118 20089 30132 40174 58/// 60001 88/// 333 55/// 20614 553// 20470 60005 91006 90760
06308 45/// /1905 333 91007 90760 91109=
06310 07258 81908 10122 20112 30156 40167 58/// 60001 72381 88/// 333 55/// 20605 553// 20402 60005 91009 90760
06312 45/// /2008 333 91009 90760 91110=
06313 45/// /2008 333 91010 90760 91111=
06315 45/// /2107 333 91009 90760 91109=
06316 45/// /2007 333 91009 90760 91109=
06319 05/67 /2306 10124 20104 30170 40173 56/// 60001 333 55/// 20736 553// 21043 60005 91008 90760
06320 45/65 /2209 10134 20119 30136 40159 58/// 333 91010 90760 91111=
06321 45/75 /2008 10142 20120 30136 40157 56/// 333 91009 90760 91111=
06323 05/// /2105 10118 20106 30165 40168 58/// 69951 333 55/// 20556 553// 20394 60005 91008 90760
06330 05/// /1907 10121 20116 30149 40163 58/// 69941 333 55/// 20475 553// 20304 60005 91008 90760
06331 46/// ///// 333 910// 911// 912//
06340 07569 72103 10139 20108 30152 40170 58/// 60001 70181 86/// 333 60005 91006 90760 91107=
06324 45/// /2006 333 91008 90760 91109=
06343 45/// /2005 333 91008 90760 91109=
06344 07258 82004 10119 20112 30172 40166 57/// 60011 71051 88/// 333 55/// 20483 553// 20232 60005 91006 90760
06348 07/61 /2004 10121 20108 30167 40168 56/// 69951 7//81 333 55/// 20537 553// 20411 60005 91005 90760
06350 07580 61906 10137 20099 30156 40172 58/// 60001 70185 86/// 333 55/// 20606 553// 20911 60005 91007 90760
06356 05/// /2004 10128 20102 30168 40170 57/// 60001 333 55/// 20605 553// 20604 60005 91006 90760
06370 07981 82004 10134 20092 30149 40175 58/// 60001 88/// 333 55/// 20658 553// 20927 60005 91006 90760
06375 07982 82004 10127 20090 30150 40175 58/// 60001 88/// 333 55/// 20592 553// 20700 60005 91006 90760
06380 07583 82004 10124 20066 30049 40187 58/// 60001 7238/ 88/// 333 55/// 20678 553// 20547 60005 91006 90760
06391 25/// /2002 10124 20083 333 553// 20423 60005 91004 90760 91104=
06377 07587 82005 10129 20087 60001 88/// 333 55/// 20617 553// 20547 60005 91007 90760
06258 45/// /2107 333 91008 90760 91110=
06400 11350 71803 10132 20124 30163 40168 57003 69981 76052 876// 333 83707 86640 90760 91107=
06407 11358 72005 10124 20114 30168 40174 57002 69991 78082 828//=
06414 05/// /1904 10119 20115 30149 40181 57001 60001 333 55300 00200 20272 50033 60231 55408 40014
06418 050// 81807 10126 20114 30154 40170 56001 69911 333 55300 55408 40014 59044 60005 70003 90710
06434 05/// /2405 10124 20103 30163 40183 57001 60001 333 55303 00640 21037 50175 60817 55408 40802
06459 05/// /1904 10119 20083 39996 40189 58003 60001 333 55300 00440 20623 50055 60499 55408 40068
06464 05/// /1903 10133 20103 30156 40184 58005 60001 333 55300 00470 20777 50154 60620 55408 40096
06472 059// 72006 10115 20065 39850 40205 58003 60001 87/// 333 55304 00700 21084 50152 60855 55408 40625
06477 050// 82203 10125 20085 40191 60001 333 55300 00340 20467 50053 60392 55408 40037
06484 05/// /2303 10117 20075 39815 40203 58007 60001 333 55302 00600 21021 50214 60814 55408 40303
06494 05/// /2205 10105 20062 39401 40189 58007 60001 333 55301 00740 21050 50128 60863 55408 40292
06439 05/// /2004 10129 20097 30170 40182 58003 60001 333 55300 00580 20838 50116 60694 55408 40158
78583 12465 40000 10262 20261 40124 60001 700// 84800 333 01300 10312 20260 58005 82818=
06428 17359 /2203 10113 20098 30138 40178 54000 69901 7//65 333 88/08 90760 91107=
06432 45468 /2205 10118 20096 30113 40182 57002 333 88/11 90760 91108=
06447 364// 82003 10120 20090 30059 40182 58004 333 70000 84/11 88/40 80/00 91110 91206=
06450 12480 52004 10129 20091 30162 40178 57005 60001 84631 333 82712 84621 91107 91204=
06451 12470 62205 10126 20093 30116 40182 56003 60001 85401 333 82815 85640 91108 91205=
06456 12470 72004 10105 20078 39851 40188 57004 69911 875// 333 85712 87621 90760 91108=
06458 11470 72106 10121 20088 30050 40182 57004 69901 70262 875// 333 81618 87635 90760 91108=
06465 45670 /1904 10125 20084 30121 40181 57004 333 88/37 90760 91107=
06476 15681 82304 10093 20051 39539 40198 57003 6///1 333 81/45 88/56 91108 91204=
06478 12780 72106 10127 20061 39973 40190 57004 60001 875// 333 86650 91110 91206=
06479 42570 72004 10131 20083 30108 40180 58006 875// 333 84627 87650 90760 91107=
06490 17782 82203 10110 20059 39627 40190 57006 6///1 700// 333 88/56 91109 91206=
06496 45770 /2003 10111 20060 39526 40186 57008 333 81/50 88/57 90760 91107=
06590 12980 41703 10120 20066 39754 40200 58009 60001 810//=
06601 02980 11003 10146 20067 39838 40213 58011 60001 333 55310 21840 60005 81362 90760 91111=
06602 06/// /2401 10148 20086 39695 40209 58016 60001 333 55310 21750 60005 90760 91104=
06603 06/// /2204 10123 20068 60001 333 55310 21886 60005 90760 91107=
06604 06/// /2103 10111 20066 39649 40223 58012 60001 333 55310 21858 60005 90760 91107=
06605 06/// /2705 10091 20016 38437 48534 58003 60001 333 55310 21991 60005 90760 91110=
06606 06/// /2002 10131 20063 39712 40220 58014 60001 333 55310 21876 60005 90760 91106=
06608 06/// /3003 10108 20050 38922 48539 57006 60001 333 55310 21904 60005 90760 91108=
06609 06/// /2304 10074 21013 38058 48533 57002 60001 333 55310 22059 60005 90760 91110=
06610 06/// /3202 10129 20071 39641 40217 58014 60001 333 55310 21872 60005 90760 91105=
06612 06/// /2607 10134 20050 39045 48539 58007 60001 333 55310 21919 60005 90760 91109=
06616 06/// /3106 10147 20075 39516 40208 57007 60001 333 55310 21958 60005 90760 91110=
06617 06/// /2806 10128 20050 39012 48540 58009 60001 333 55310 21818 60005 90760 91112=
06618 06/// /1911 10126 20093 39707 40222 57014 60001 333 55310 21814 60005 90760 91117=
06619 06/// /1703 10099 20049 38848 48539 57005 60001 333 55310 21955 60005 90760 91107=
06620 06/// /0902 10085 20059 39706 40233 57010 60001 333 55304 21382 60005 90760 91105=
06621 06/// /0203 10086 20085 39703 40231 58010 60001 333 55300 20752 60005 90760 91106=
06623 06/// /2104 10111 20066 39383 48537 57006 60001 333 55309 21732 60005 90760 91109=
06624 06/// /1601 10112 20068 39727 40226 58015 60001 333 55309 21818 60005 90760 91103=
06625 06/// /2302 10145 20064 39458 48545 58012 60001 333 55310 21926 60005 90760 91105=
06626 06/// /2501 10125 20069 39768 40221 58016 60001 333 55310 21919 60005 90760 91104=
06627 06/// /2303 10138 20051 39034 48540 58011 60001 333 55310 21969 60005 90760 91110=
06628 06/// /2905 10114 20051 39024 48541 57005 60001 333 55310 21962 60005 90760 91109=
06631 06/// /2403 10137 20056 39566 40212 58012 60001 333 55310 21912 60005 90760 91106=
06632 06/// /2303 10133 20071 39712 40218 58016 60001 333 55310 21825 60005 90760 91108=
06633 01762 40002 10129 20066 39761 40220 57016 60001 70541 333 55310 21804 60005 81650 83172 90760 91105=
06635 01962 12403 10135 20073 39649 40219 58013 60001 70500 333 55310 21836 60005 81075 90760 91105=
06636 06/// /2303 10130 20068 39652 40217 58014 60001 333 55310 21854 60005 90760 91107=
06637 02875 23304 10128 20011 39527 40214 57013 60001 333 55310 21919 60005 82357 90760 91110=
06638 06/// /2303 10139 20057 39354 48545 58009 60001 333 55309 21706 60005 90760 91107=
06639 06/// /2504 10090 20044 38637 48538 58005 60001 333 55310 21850 60005 90760 91108=
06640 06/// /3104 10147 20056 60001 333 60005 90760 91109=
06641 06/// /1208 10122 20078 39812 40221 58013 60001 333 55307 21606 60005 90760 91119=
06642 06/// /2902 10118 21063 60001 333 55300 21026 60005 90760 91105=
06643 06/// /2403 10142 20078 39717 40214 58017 60001 333 55310 21771 60005 90760 91109=
06644 06/// /3303 10122 20073 39684 40220 58014 60001 333 55310 21861 60005 90760 91105=
06645 06/// /0103 10142 20047 39499 48541 57007 60001 333 55310 21886 60005 90760 91107=
06646 06/// /3201 10118 20073 39833 40223 58017 60001 333 55310 21739 60005 90760 91104=
06647 06/// ///// 10119 20071 39826 40226 58017 60001 333 55310 21796 60005=
06648 06/// /2806 10141 20084 39604 40214 58013 60001 333 55310 21847 60005 90760 91108=
06649 06/// /1002 10104 20056 39740 40229 57014 60001 333 60005 90760 91107=
06650 06/// /1101 10132 20058 39682 40218 58012 60001 333 55310 21778 60005 90760 91106=
06651 06/// /2400 10147 20060 39351 48545 57011 60001 333 55310 21768 60005 90760 91110=
06652 06/// /0208 10136 20040 60001 333 60005 90760 91113=
06653 06/// /1401 10109 20063 60001 333 60005 90760 91106=
06654 06/// /1302 10092 21087 38570 48541 58008 60001 333 55310 21994 60005 90760 91109=
06655 06/// /2207 10109 21016 39029 48538 57007 60001 333 55310 22272 60005 90760 91115=
06656 06/// /2301 39550 57013 60001 333 60005 90760 91107=
06657 06/// /1002 10131 20033 39664 40218 58014 60001 333 55310 21879 60005 90760 91104=
06659 06/// /1905 10066 21017 37929 48528 58004 60001 333 55310 22002 60005 90760 91112=
06660 06/// 22802 10128 20050 39564 40215 58009 60001 333 55310 21818 60005 90760 91105=
06662 06/// /1903 10118 20040 39300 48538 57007 60001 333 60005 90760 91109=
06664 06/// /2802 10125 20066 39694 40219 57014 60001 333 55310 21760 60005 90760 91104=
06666 06/// /1203 10113 20071 39815 40224 57017 60001 333 55310 21782 60005 90760 91107=
06669 46/// /20// 10102 20051 39238 48533 57007 333 55310 21840 90760 91114=
06670 01/62 32901 10118 20069 39715 40222 57013 60001 70541 83040 333 55310 21847 60005 81362 83365 90760 91107=
06671 46/// /0605 39754 57010 333 90760 91108=
06672 02972 33304 10131 20028 39698 40216 58013 60001 333 55309 22236 60005 83659 90760 91107=
06673 06/// /0901 10105 20047 39647 40224 58009 60001 333 55305 21274 60005 90760 91104=
06674 06/// /3502 10122 20085 39697 40221 58013 60001 333 55310 21858 60005 90760 91106=
06675 06/// /0403 10114 20059 39166 48538 57009 60001 333 55303 21339 60005 90760 91106=
06676 46/// /3005 333 90760 91108=
06678 06/// /0304 10098 20087 39622 40225 58011 60001 333 55300 20907 60005 90760 91108=
06679 06/// /0502 10121 20062 39585 40218 57010 60001 333 55308 21714 60005 90760 91105=
06680 02/89 72110 10044 21169 37558 47115 58007 60001 8709/ 333 553// 20846 60005 81756 86357 90760 91117=
06681 06/// /0502 10106 20013 39316 48535 58008 60001 333 55301 20954 60005 90760 91104=
06682 06/// /1601 10114 21001 39113 48537 57011 60001 333 55308 21660 60005 90760 91107=
06683 46/// /2504 39740 57011 333 90760 91108=
06685 06/// /3405 10121 20038 39608 40217 58013 60001 333 55302 21138 60005 90760 91107=
06686 06/// /2804 10124 20025 39635 40220 57016 60001 333 55304 21444 60005 90760 91107=
06687 46/// /1301 39722 57013 333 90760 91108=
06688 46/// /2316 10044 21155 37569 47114 57005 333 55307 21426 90760 91122=
06689 06/// /3004 10095 20032 38923 48536 58006 60001 333 55305 21411 60005 90760 91112=
06690 06/// /0103 10095 20078 39753 40230 57012 60001 333 55306 21397 60005 90760 91107=
06693 06/// /3304 10117 20043 39487 48534 58011 60001 333 55300 20720 60005 90760 91108=
06695 06/// /2511 10143 21120 38602 48540 58009 60001 333 55310 22095 60005 90760 91126=
06700 02667 10903 10138 20074 39732 40217 58014 60001 81102 333 55310 21886 60005 81840 90760 91107=
06702 46/// /2607 10084 20028 38365 48538 58002 333 55310 22117 90760 91115=
06703 06/// /0706 10128 20061 39017 48539 58011 60001 333 60005 90760 91110=
06704 06/// /1505 10125 20079 39422 48540 57009 60001 333 55310 21854 60005 90760 91109=
06705 06/// /1504 10122 20071 39678 40220 58012 60001 333 55310 21879 60005 90760 91106=
06706 46/// /2103 333 90760 91106=
06707 06/// /2306 10124 20069 60001 333 60005 90760 91110=
06708 06/// /2104 10129 20058 39259 48542 57006 60001 333 55310 21865 60005 90760 91109=
06709 46/// /2904 10114 20095 39782 40229 57011 333 90760 91107=
06710 06/// /3421 10136 20055 60001 333 60005 90760 91125=
06711 06/// /2103 10119 20079 39683 40223 58011 60001 333 55310 21789 60005 90760 91106=
06712 02975 00602 10137 20060 39768 40219 58014 60001 333 55310 21948 60005 90760 91107=
06714 46/// /1814 10024 21119 37127 47110 57002 333 55310 22084 90760 91123=
06715 06/// /3210 10137 20034 39647 40212 58018 60001 333 55310 21872 60005 90760 91118=
06716 06/// /3506 10111 21086 38448 48530 58011 60001 333 55310 22074 60005 90760 91110=
06717 02989 02812 10046 21148 37567 47119 58007 60001 333 55310 21948 60005 90760 91117=
06720 06/// /2404 10139 20011 39645 40210 57020 60001 333 55310 21951 60005 90760 91108=
06721 06/// /0607 10119 21127 60001 333 60005 90760 91117=
06722 06/// /2703 10096 21063 38199 48528 58009 60001 333 55310 22059 60005 90760 91108=
06723 46/// /2105 10046 21102 37337 47117 57003 333 55310 22146 90760 91112=
06724 06/// /2604 10106 21030 38608 48530 58010 60001 333 55310 22138 60005 90760 91107=
06725 06/// /2003 10113 21097 38491 48530 58013 60001 333 55310 21987 60005 90760 91106=
06727 06/// /2605 10135 21018 39458 48531 58025 60001 333 55310 22084 60005 90760 91107=
06728 06/// ///// 10123 21102 38423 48529 58011 60001 333 55310 22034 60005=
06730 42/89 21514 11051 21213 36601 47112 57002 82040 333 55310 22135 82331 90760 91120=
06731 06/// /3202 10141 20045 39550 40213 58011 60001 333 55307 21598 60005 90760 91105=
06733 06/// /0807 10132 20034 39265 48540 58012 60001 333 55310 21948 60005 90760 91111=
06734 06/// /3405 10133 20025 39537 40211 58014 60001 333 55310 21951 60005 90760 91112=
06735 06/// /0808 10108 20010 38719 48538 57005 60001 333 55310 21915 60005 90760 91114=
06739 46/// /1504 10021 21165 37198 47118 58003 333 55310 22095 90760 91116=
06740 46/// /1714 11002 21204 37012 47112 58003 333 55310 22027 90760 91125=
06744 06/// /1310 10088 21204 38074 48533 57008 60001 333 55307 21361 60005 90760 91126=
06745 02788 31106 10153 21142 38690 48534 58015 60001 333 55306 21699 60005 83650 90760 91112=
06747 46/// /1704 10028 21105 37199 47114 57004 333 55310 22362 90760 91107=
06748 06/// /0510 10122 21150 38386 48526 58015 60001 333 55310 22066 60005 90760 91114=
06749 46/// /2103 10022 21108 36985 47114 58003 333 55305 21084 90760 91113=
06750 06/// /1618 10071 21172 37756 48527 58005 60001 333 55309 22120 60005 90760 91130=
06751 06/// /1501 10081 21126 38143 48540 58006 60001 333 55308 21476 60005 90760 91111=
06752 06/// /2104 10122 20035 39734 40234 57017 60001 333 55307 21598 60005 90760 91107=
06753 06/// /1203 10103 20003 39086 48543 57011 60001 333 55308 21642 60005 90760 91107=
06754 46/// /1710 10057 21193 37857 48541 57005 333 55301 21397 90760 91113=
06756 06/// /1503 10097 20026 39558 40240 57009 60001 333 55301 21037 60005 90760 91107=
06758 06/// /1801 10113 20051 39852 40240 57014 60001 333 55300 20911 60005 90760 91106=
06759 06/// /0803 10113 21076 38377 48540 57007 60001 333 55300 21138 60005 90760 91107=
06760 01/62 72101 10112 20063 39791 40238 57016 60001 70511 8703/ 333 55300 21026 60005 87359 90760 91106=
06762 06/// /0701 10114 20054 39995 40242 57017 60001 333 55300 20950 60005 90760 91104=
06770 01560 72301 10119 20068 39882 40242 57014 60001 70522 333 55300 20896 60005 81831 86361 87274 90760
06771 06/// /1901 10113 20057 39822 40244 57012 60001 333 55300 20587 60005 90760 91103=
06777 06/// /3305 10090 21089 38441 48544 57007 60001 333 55300 20904 60005 90760 91110=
06778 06/// /1408 10113 21156 38065 48528 58008 60001 333 55307 21778 60005 90760 91115=
06779 06/// /2210 10087 21105 38230 48537 57010 60001 333 55300 21055 60005 90760 91118=
06780 06/// /1905 10037 21131 37397 47120 57005 60001 333 55305 21408 60005 90760 91112=
06782 06/// /1702 10132 21022 38851 48538 57011 60001 333 55310 22056 60005 90760 91108=
06783 06/// /1402 10094 21078 38402 48544 57008 60001 333 55300 21008 60005 90760 91106=
06784 06/// /0102 10117 21087 38435 48531 57009 60001 333 55304 21343 60005 90760 91105=
06785 06/// /1802 10098 21111 38153 48531 57006 60001 333 55301 21148 60005 90760 91108=
06786 02966 60503 10123 20017 39563 40215 58017 60001 333 55301 21084 60005 83465 86078 90760 91106=
06787 06/// /3402 10128 21031 39075 48535 58018 60001 333 55309 21836 60005 90760 91104=
06788 06/// /1703 10099 20016 38979 48543 57014 60001 333 55300 20886 60005 90760 91105=
06789 06/// ///// 10094 20009 39402 48528 58018 60001 333 55300 20799 60005=
06790 06/// /2203 10109 20032 60001 333 60005 90760 91108=
06791 06/// /1407 11017 21174 36843 47121 57003 60001 333 55306 21602 60005 90760 91125=
06792 02989 71711 10106 21110 38321 48532 58012 60001 333 55305 21361 60005 84361 86078 90760 91119=
06793 06/// /3403 10096 21044 38465 48535 57007 60001 333 55300 20922 60005 90760 91108=
06794 02974 72103 10116 21023 38994 48550 57010 60001 80006 333 55306 21516 60005 87266 90760 91105=
06795 06/// /1912 10046 21185 37400 47123 57005 60001 333 55307 21793 60005 90760 91120=
06796 06/// /0503 10081 21045 38663 48544 57007 60001 333 55307 21523 60005 90760 91107=
06797 06/// /1308 10070 21131 37792 48539 58002 60001 333 55309 21656 60005 90760 91117=
06798 06/// /1202 10126 21025 38736 48535 58018 60001 333 55301 21249 60005 90760 91110=
06799 46/// /1504 10089 21147 37669 47131 57006 333 55306 21436 90760 91110=
06990 02970 73204 10121 20035 39682 40223 58013 60001 84474 333 55306 21483 60005 83658 86462 90760 91108=
07002 05/// /2207 10149 20124 30083 40164 58005 60121 333 59037 60017 91011 90710 91111 555 60005 90760 91111=
07003 04468 72104 10158 20145 30146 40170 58003 60011 87/// 333 3/011 55304 21113 59036 69987 86/16 87/25
07005 04/70 /2404 10147 20117 30090 40176 57002 60001 333 30009 59032 60007 91008 90710 91108 555 60005 90760 91108=
07005 04/70 /2407 10147 20117 30090 40176 57002 60001 700// 333 4/000 60007 90710 91116 555 60005=
07010 05/// /1905 10134 20125 30147 40166 57005 60061 333 59039 60047 91007 90710 91107 555 69905 90760 91109=
07015 04361 81808 10126 20112 30123 40180 58002 69901 700// 333 4/000 60007 90710 91112 555 60005=
07020 01562 62513 10146 20123 30160 40171 53006 69981 72122 86400 333 69987 86623 90710 91128 555 69985=
07024 04469 /2312 10142 20115 30009 40172 50002 60051 700// 333 4//// 60047 90710 91120 555 69905=
07027 04569 /2510 10160 20116 30105 40185 50002 69921 700// 333 4/000 60007 90710 91119 555 60005=
07031 04583 72209 10149 20111 30016 40186 52001 60011 700// 333 4/000 60007 90710 91118 555 60005=
07037 04584 /2111 10164 20115 30002 40182 57003 69921 700// 333 4/000 69927 90710 91116 555 60005=
07040 04466 42305 10165 20101 30127 40175 50000 60001 84100 333 3/010 59029 60007 84818 91009 90710 91109 555 60005 90760 91109=
07055 04325 82005 10129 20113 30067 40188 57002 60001 710// 88/// 333 30008 55300 20340 59028 60007 87/09 88/15
07061 04/68 /2003 10115 20106 30071 40189 58003 69921 333 3/003 55300 20474 59029 60007 91004 90710
07075 04466 81002 10101 20079 30022 40201 58007 60001 88/// 333 30001 55300 20447 59031 60007 86/17 88/25
07093 04762 /2004 10154 20088 39898 40203 58008 60001 81/// 333 30001 55310 21661 59039 60007 81/50 91006
07100 05/// /2608 10157 20130 30104 40185 51008 60021 333 58017 69927 91010 90710 91110 555 69925 90760 91111=
07059 04363 81905 10118 20107 30049 40184 58004 60001 88/// 333 59032 60007 88/07 91006 90710 91107 555 60005 90760 91107=
07072 04469 81505 10090 20079 30087 40203 58002 60021 700// 333 4/000 60027 90710 91108 555 60025=
07093 04762 /2007 10154 20088 39898 40203 58008 60001 700// 333 4/000 60007 90710 91112 555 60005=
07100 06/// /2615 10157 20130 30104 40185 51008 60021 333 4//// 69927 90710 91119 555 69925=
07103 02970 02615 10165 2//// 3//// 4//// 60001 333 60007 90710 91119 92438 555 60005=
07106 06/81 /2607 10154 20118 30050 40187 51006 69961 333 58012 69967 555 60005=
07107 02560 42612 1//// 2//// 3//// 4//// 6///1 84800 333 6///7 90710 91122 92437 555 6///5=
07109 04473 72607 10168 20127 30092 40190 51006 69921 87/// 333 58013 60007 87/17 87/26 91009 90710 91109 555 60005 90760 91111=
07110 04583 /2709 10159 20119 30071 40188 51006 69921 700// 333 4/000 69927 90710 91116 555 60005=
07117 02568 62209 10162 20133 30113 40182 51005 60001 86200 333 60007 90710 91118 92437 555 60005=
07118 04569 /2308 10140 20132 30093 40197 52005 60011 700// 333 4/000 60017 90710 91118 555 60015=
07120 04570 72309 10162 20103 30023 40183 54000 69921 700// 333 4/000 69927 90710 91117 555 60005=
07125 04975 /2209 10169 20114 30110 40187 50001 60001 700// 333 4/000 60007 90710 91117 555 60005=
07130 04570 /2106 10167 20116 30149 40193 58003 69901 700// 333 4/000 60007 90710 91113 555 60005=
07134 04570 82307 10160 20112 30076 40195 58002 69901 700// 333 4/000 69907 90710 91113 555 69905=
07139 04470 82207 10147 20105 30023 40196 50002 60001 700// 333 4/000 60007 90710 91114 555 60005=
07147 04258 82003 10114 20106 39989 40201 50001 60001 88/// 333 3/006 59022 60007 87/06 88/13 91005 90710
07149 04365 82103 10117 20106 30095 40204 53001 69941 70265 875// 333 31/// 55300 20352 59021 60007 86708 87613
07150 04477 82004 10127 20106 30140 40199 56001 60001 88/// 333 30005 59024 60007 87/14 88/19 91005 90710
07153 04258 8//// 10113 20107 30094 40205 50001 60031 88/// 333 31004 55300 20499 59022 69907 88/04 555 60005=
07149 01365 82106 10117 20106 30095 40204 53001 69941 70265 875// 333 60007 86708 87613 90710 91115 93100 555 60005=
07156 04/70 /2203 10124 20108 30106 40200 57001 69901 333 3/006 55300 20414 59023 60007 91006 90710
07157 04258 81904 10116 20100 30064 40199 54000 69901 875// 333 31006 55300 20402 59023 60007 87706 91006
07168 04570 81804 10123 20097 30067 40209 58004 69901 88/// 333 31101 55300 20403 59021 69907 87/21 88/29
07169 04980 82103 10150 20085 30042 40207 58003 60001 88/// 333 3/001 55307 21675 59027 60007 88/59 91005
07180 04783 72204 10177 20096 39952 40202 57010 60001 87/// 333 30000 55309 21762 59040 60007 87/56 91006
07181 04979 /2205 10162 20082 39793 40202 58004 60001 333 3/003 59032 60007 91008 90710 91109 555 60005 90760 91109=
07166 04480 82003 10108 20094 30006 40208 58002 69961 88/// 333 32/// 59025 69967 81/10 87/26 88/32 91004
07361 04/67 /2401 10134 20096 39787 40218 50001 60011 762// 333 3/002 55300 20647 59008 69927 91003 90710
07053 04579 82204 10135 20114 30088 40192 50000 60001 88/// 333 30007 59026 60007 88/21 91006 90710 91107 555 60005 90760 91107=
07168 04570 81807 10123 20097 30067 40209 58004 69901 700// 333 4/000 69907 90710 91110 555 69905=
07180 04783 72207 10177 20096 39952 40202 57010 60001 700// 333 4/000 60007 90710 91112 555 60005=
07181 04979 /2210 10162 20082 39793 40202 58004 60001 700// 333 4//// 60007 90710 91117 555 60005=
07190 04975 /1905 10162 20071 30029 40208 58015 60001 700// 333 4/000 60007 90710 91110 555 60005=
07197 04/70 /1808 10180 20080 39958 40203 58015 60001 700// 333 4/000 60007 90710 91115 555 60005=
07201 04469 72510 10163 20125 30093 40194 50003 60001 700// 333 4/000 60007 90710 91120 555 60005=
07203 02475 52511 10164 20133 69921 85200 222// 327// 333 60007 90710 91120 92438 555 60005=
07205 04469 82413 10160 20131 30145 40198 52004 60001 700// 333 4/000 60007 90710 91118 555 60005=
07207 02565 52509 10167 20140 30153 40204 51005 69981 85239 333 60007 84830 90710 91115 555 60005=
07217 04582 62407 10147 20134 30199 40203 50003 60021 700// 333 4/000 60027 90710 91114 555 60015=
07222 04469 72208 10166 20129 30171 40202 58001 60001 700// 333 4/000 60007 90710 91116 555 60005=
07230 04/70 /2209 10165 20110 30146 40204 50000 60001 700// 333 4/000 60007 90710 91115 555 60005=
07235 04570 82206 10167 20116 30140 40202 50000 60001 700// 333 4//// 60007 90710 91112 555 60005=
07240 04468 82206 10142 20121 30076 40210 50001 60001 700// 333 4/000 60007 90710 91112 555 60005=
07249 04267 82104 10124 20111 30054 40204 50001 60021 88/// 333 3/004 55300 20414 59019 60007 88/06 91006
07255 04/70 /2404 10139 20112 30018 40216 58003 69961 333 3/002 55300 20860 59016 69927 91006 90710
07257 04480 82404 10139 20111 30004 40215 58003 69901 88/// 333 59016 69907 82/14 87/27 88/34 91007 90710
07260 04570 82302 10146 20098 30007 40218 58004 60001 88/// 333 30005 55300 20650 59018 60007 84/21 88/31
07280 04764 /1303 10136 20090 39954 40216 58007 60001 81/// 333 30002 55310 21796 55408 42763 59031 60007
07283 04670 62002 10164 20089 39659 40200 58004 60001 86/// 333 30005 55310 21789 59030 60007 86/48 91004
07288 05/// /2603 10161 20086 39849 40213 58005 60001 333 3/004 55310 21787 59031 60007 91007 90710
07292 04/81 /2603 10160 20094 39891 40213 58006 60001 333 3/004 55310 21735 59032 60007 91006 90710
07299 04/70 21503 10163 20072 39887 40208 58014 60001 81031 333 30006 59037 60007 81365 82076 91004 90710
07300 04570 62303 10177 20144 30168 40206 50002 60001 8227/ 333 60007 82826 85358 91006 90710 91106 555 60005 90760 91106=
07255 04/70 /2408 10139 20112 30018 40216 58003 69961 700// 333 4/000 69927 90710 91113 555 60005=
07260 04570 82304 10146 20098 30007 40218 58004 60001 700// 333 4/000 60007 90710 91109 555 60005=
07266 04470 82107 10126 20101 30028 40212 58004 69901 700// 333 4/000 69907 90710 91112 555 69905=
07280 04764 /1305 10136 20090 39954 40216 58007 60001 700// 333 4/000 60007 90710 91111 555 60005=
07288 06/// /2606 10161 20086 39849 40213 58005 60001 333 4/000 60007 90710 91113 555 60005=
07292 04/81 /2606 10160 20094 39891 40213 58006 60001 700// 333 4/000 60007 90710 91111 555 60005=
07296 04970 /2606 10159 20084 39740 40209 58008 60001 700// 333 4/000 60007 90710 91111 555 60005=
07299 02970 21505 10163 20072 39887 40208 58014 60001 81031 333 60007 81365 90710 91110 93100 555 60005=
07300 01570 62307 10177 20144 30168 40206 50002 60001 701// 8227/ 333 60007 90710 91112 92438 555 60005=
07306 04478 82206 10158 20129 30102 40208 50001 69901 751// 333 4//// 69907 90710 91111 555 69905=
07314 02560 82206 10169 20142 30190 40217 50003 69921 888// 333 60007 83825 85640 90710 91109 555 60005=
07335 04267 82106 10140 20126 30075 40219 55000 69901 700// 333 4/000 60007 90710 91114 555 60005=
07374 04770 72102 10168 20074 39920 40216 57008 60001 700// 333 4/000 60007 90710 91110 555 60005=
07379 04983 /3003 10166 20090 39930 40215 58009 60001 700// 333 4/000 60007 90710 91107 555 60005=
07385 04/70 /1502 10170 20092 39958 40216 58007 60001 700// 333 4/000 60007 90710 91106 555 60005=
07386 04961 /2006 10157 20091 39984 40215 58009 60001 700// 333 4/000 60007 90710 91110 555 60005=
07434 04269 81706 10114 20105 39748 40226 58001 60011 700// 333 4/000 69967 90710 91109 555 69905=
07460 04683 71202 10164 20071 39825 40213 58008 60001 700// 333 4/000 60007 90710 91110 555 60005=
07471 04970 /2803 10143 20025 39256 4//// 58005 60001 700// 333 4/000 60007 90710 91111 555 60005=
07475 04981 /2804 10166 20085 39748 40209 58007 60001 700// 333 4/000 60007 90710 91110 555 60005=
07480 04983 /1903 10190 20083 39978 40210 58012 60001 700// 333 4/000 60007 90710 91110 555 60005=
07481 02975 13101 10184 20078 39931 40212 58010 60001 80001 333 60007 81076 90710 91107 93100 555 60005=
07482 04/70 /2203 10178 20078 39917 40213 58011 60001 700// 333 4/000 60007 90710 91109 555 60005=
07486 04781 /0602 10167 20073 39760 40210 58008 60001 700// 333 4/000 60007 90710 91106 555 60005=
07490 04986 /2001 10162 20084 39683 40212 58013 60001 333 30/// 59034 60007 91003 90710 91105 555 60005 90760 91105=
07491 04967 /3604 10153 20071 39942 40221 58017 60001 700// 333 4/000 60007 90710 91107 555 60005=
07497 06/// /2004 10168 20000 39206 48542 57016 60001 333 4/000 60007 90710 91110 555 60005=
07500 02660 81909 10176 2//// 3//// 4//// 60001 885// 333 60007 88633 90710 91113 92437 555 60005=
07502 04668 82104 10180 20156 30196 40225 58001 60011 82/// 333 3/010 58000 69907 82/48 88/57 91006 90710
07503 04359 82005 10170 20145 30178 40225 58001 69981 83/// 333 3/014 55302 21240 58000 69907 83/09 85/56
07510 04375 81201 10158 20145 30169 40226 58001 60021 87/// 333 31010 55300 20697 55408 40009 59001 69907
07524 04767 71203 10150 20096 30144 40227 58010 60001 87/// 333 30006 55302 21299 59001 60007 86/56 87/57
07530 04468 80402 10133 20117 30167 40230 58002 69921 88/// 333 31008 55300 20612 58001 60007 88/12 91003
07535 04870 83302 10152 20100 39917 40226 58008 60001 88/// 333 30006 55304 21298 59005 60007 88/56 91003
07549 04669 /2503 10148 20078 39488 40218 58004 60001 81/// 333 30005 55310 22219 59011 60007 81/49 91005
07552 04567 /3303 10147 20080 39548 40219 58005 60001 81/// 333 30/// 55308 21778 59008 60007 81/25 91005
07554 04970 /2403 10160 20056 39147 48553 58008 60001 333 30004 55310 22031 59023 60007 91005 90710
07558 04/70 /2002 10148 20073 39390 40208 58006 60001 333 3/006 55310 22086 59016 60007 91004 90710
07560 04/70 /2102 10094 20036 38476 48541 58001 60001 333 59016 60007 91005 90710 91106 555 60005 90760 91110=
07510 04375 81203 10158 20145 30169 40226 58001 60021 700// 333 4/000 69907 90710 91105 555 60005=
07535 04870 83303 10152 20100 39917 40226 58008 60001 700// 333 4/000 60007 90710 91106 555 60005=
07540 04/69 /3401 10163 20090 30103 40231 58005 60001 333 30008 55308 21792 59001 60007 91002 90710
07563 04968 /0101 10193 20111 30161 40218 58011 60001 333 30/// 59024 60007 91003 90710 91103 555 60005 90760 91105=
07549 04669 /2505 10148 20078 39488 40218 58004 60001 700// 333 4/000 60007 90710 91110 555 60005=
07558 04/70 /2004 10148 20073 39390 40208 58006 60001 700// 333 4/000 60007 90710 91110 555 60005=
07570 04/70 /1804 10186 20074 39899 40226 58013 60001 700// 333 4//// 60007 90710 91108 555 60005=
07577 04/70 /0000 10192 20102 30127 40214 58016 60001 700// 333 4/000 60007 90710 91104 555 60005=
07586 06/// /2802 10189 20102 30099 40216 58010 60001 333 10211 20052 55310 21914 59024 60007 555 60005=
07588 04970 /2102 10177 20056 39670 40203 58015 60001 333 30004 55310 22074 59026 60007 91005 90710
07591 06/// /2003 10151 21019 39201 58013 60001 333 10198 20047 55307 21728 59020 60007 555 60005=
07593 06/// /2403 10156 21094 38727 48533 58018 60001 333 10159 20006 59038 60007 555 60005=
07600 04568 63303 10190 20132 30177 40228 58004 60001 85544 333 30/// 58001 60007 84620 85356 83066 91003
07602 04860 73502 10179 20132 30141 40225 58005 60001 87/// 333 30010 55306 21589 58000 60007 87/58 91004
07603 06/74 /2001 10185 20120 30188 40225 58006 60001 333 4/000 60007 90710 91103 555 60005=
07607 04985 81301 10173 20102 30157 40227 58002 60001 700// 333 4/000 60007 90710 91104 555 60005=
07621 04982 /0305 10184 20059 39794 40217 58003 60001 700// 333 4/000 60007 90710 91110 555 60005=
07627 04970 /2805 10177 20056 39736 40218 58006 60001 700// 333 4/000 60007 90710 91109 555 60005=
07628 04970 /0304 10179 20064 30001 40225 58007 60001 700// 333 4//// 60007 90710 91107 555 60005=
07630 04983 /3104 10172 20070 30051 40229 58004 60001 700// 333 4/000 60007 90710 91108 555 60005=
07638 04969 /1804 10200 20132 30199 40218 58011 60001 333 59022 60007 91006 90710 91107 555 60005 90760 91107=
07643 04969 /1605 10191 20128 30208 40217 58012 60001 700// 333 4/000 60007 90710 91108 555 60005=
07647 04679 /3004 10206 20118 30186 40214 58008 60001 81/// 333 59020 60007 81/36 91006 90710 91107 555 60005 90760 91107=
07648 04970 /3302 10205 20114 30144 40213 58009 60001 333 59020 60007 91005 90710 91107 555 60005 90760 91107=
07650 04967 /2506 10201 20118 30176 40214 58009 60001 700// 333 4/000 60007 90710 91108 555 60005=
07661 02975 03013 1//// 2//// 3//// 4//// 6///1 333 6///7 90710 91121 92428 555 6///5=
07666 04/// /1103 10180 20141 30169 40217 58008 60001 333 59020 60007 91004 90710 91104 555 60005 90760 91104=
07667 04983 /2406 10216 20124 30201 40206 58010 60001 333 3/012 59025 60007 91008 90710 91108 555 60005 90760 91108=
07675 04/70 /2904 10226 20055 30103 40199 58016 60001 333 55310 22009 59030 60007 91006 90710 91107 555 60005 90760 91107=
07684 04984 /1603 10189 20112 30201 40206 58010 60001 333 59027 60007 91006 90710 91106 555 60005 90760 91106=
07690 02982 01907 10194 20117 30177 40208 58006 60001 333 60007 90710 91111 555 60005=
07747 04669 /0805 10212 20101 30165 40217 58010 60001 700// 333 4/000 60007 90710 91114 555 60005=
07753 05/// /0405 10177 20071 30030 40201 58003 60001 333 59005 60007 91007 90710 91108 555 60005 90760 91108=
07754 04982 /0106 10203 20066 30132 40200 57005 60001 81/// 333 59013 60007 81/67 91009 90710 91110 555 60005 90760 91110=
07761 04986 /2408 10224 20150 30181 40192 58005 60001 700// 333 4/000 60007 90710 91117 555 60005=
07775 04/// /0107 10181 20102 30108 40196 57005 60001 333 59019 60007 91010 90710 91112 555 60005 90760 91113=
07780 04680 70902 10217 20117 30167 40194 58002 60001 87/// 333 59007 60007 87/43 91005 90710 91105 555 60005 90760 91109=
07785 05/// /1007 10182 20064 30073 40207 58002 60001 333 59024 60007 91010 90710 91111 555 60005 90760 91113=
07790 04962 /0111 10194 20081 30188 40202 58003 60001 700// 333 4/000 60007 90710 91118 555 60005=
08001 01475 62907 10174 20133 30162 40242 51005 69901 70252 83880 333 60007=
08002 06/80 /2706 10167 20132 30116 40239 52003 69971 333 69907=
08005 05/// /2204 10187 20136 30230 40235 51002 60001 333 58007 60007 91007 90710 91107=
08008 06/65 /2103 10146 20110 39719 40242 50004 60001 333 60007=
08011 02565 63003 10167 20117 30083 40237 52008 60001 82511 333 60007=
08014 12670 30201 10187 20105 30228 40236 51008 60001 82831=
08015 02/69 63002 10157 20107 39837 40236 52004 60001 84046 333 60007=
08021 02680 62906 10202 20127 30230 40232 55000 60001 83834 333 60007=
08023 02562 73006 10176 20125 30161 40231 53002 60001 82852 333 60007=
08025 02782 62502 10194 20098 30182 40228 58007 60001 82171 333 60007=
08027 12484 63406 10158 20114 39921 40227 54000 60001 81171=
08029 12580 50303 10185 20125 30220 40229 58003 60001 81461=
08042 01480 60000 10145 20118 39809 40241 50003 69901 70242 85875 333 60007=
08044 02570 32702 10181 20134 30103 40231 58001 69901 83200 333 60007=
08045 02570 42204 10156 20147 39933 40239 50001 69901 82810 333 60007=
08048 06/69 /1902 10154 20114 30064 40240 50000 60001 333 60007=
08053 01370 72102 10127 20091 39600 40245 50000 69901 70142 85608 333 60007=
08055 02686 41404 10163 20058 39172 48556 58001 60001 83106 333 60007=
08072 05/// /2803 10159 20071 60001 333 60007 91006 90710 91106=
08075 02684 72707 10158 20068 39199 42844 58002 60001 86838 333 60007=
08080 02675 40602 10173 20043 39629 40219 58009 60001 83574 333 60007=
08084 02/80 21004 10178 20038 39797 40220 58011 60001 81035 333 60007=
08085 02/80 40403 10169 20038 39691 40218 58011 60001 82032 333 60007=
08087 05/70 /2601 10179 20041 39868 40213 58014 60001 333 55310 59016 60007 91002 90710 91103=
08094 02989 12202 10186 20044 39573 40208 58009 60001 80001 333 60007=
08112 05/70 /1702 10166 39284 58013 60001 333 55310 59017 60007 91004 90710 91104=
08117 05/70 /3202 10117 20021 38340 48542 58005 60001 333 55310 20000 59013 60007 91002 90710 91103=
08140 12675 42405 10166 20061 39252 48562 55002 60001 81781=
08141 02580 23502 10170 20073 39373 40209 58006 60001 82500 333 60007=
08148 06/58 /1002 10180 20031 38988 48557 58011 60001 333 60007=
08160 02980 12802 10171 20051 39918 40222 58014 60001 80005 333 60007=
08171 02970 02702 10182 20073 39987 40221 58015 60001 333 60007=
08175 02680 11706 10219 20077 30124 40213 58010 60001 81101 333 60007=
08181 02575 11208 10206 20148 30211 40217 58008 60001 81101 333 60007=
08184 02570 41703 10217 20121 30055 40205 58010 60001 84800 333 60007=
08202 02665 43403 10174 20052 39307 42847 58007 60001 82862 333 60007=
08210 02970 13303 10164 20024 38939 48558 58006 60001 80001 333 60007=
08213 06/69 /2805 10163 20027 39074 48557 58004 60001 333 60007=
08215 02/70 13105 10114 20027 38164 48550 50000 69901 81042 333 69907=
08219 05/// /1202 10173 20039 39078 42843 58003 60001 333 59012 60007 91004 90710 91104=
08220 05/// ///00 60001 333 60007 91002 90710 91103=
08221 02980 32202 10176 20028 39541 40209 58012 60001 80001 333 60007=
08222 05/// ///// 10166 20029 39440 40204 58007 60001 333 59016 60007=
08223 12980 20902 10187 20055 39422 40202 58009 60001 80008=
08224 12982 31702 10174 20047 39504 40212 57008 60001 80008=
08226 06/70 /2804 10191 20037 39374 40192 58011 60001 333 60007=
08231 02970 72103 10195 20014 39136 42846 58012 60001 80006 333 60007=
08232 02970 22802 10177 20024 39011 48559 58013 60001 80001 333 60007=
08233 06/70 /1002 10178 20017 39206 42851 58014 60001 333 60007=
08235 06/70 /3603 10187 20008 39183 42844 58018 69901 333 69907=
08238 01759 11703 10230 20097 30157 40215 58011 60001 70400 81131 333 69907=
08261 02880 60602 10201 20064 39757 40208 58009 69901 80004 333 69907=
08272 06/70 /1903 10192 20063 39614 40206 58012 60001 333 60007=
08280 06/// /0503 10205 20041 39404 40198 58011 60001 333 60007=
08284 02580 31304 10210 20126 30141 40215 58013 60001 81105 333 60007=
08285 05/// /1501 10218 20109 60001 333 60007 91003 90710 91104=
08286 06/70 /1605 10221 20134 30164 40215 58009 60001 333 60007=
08301 05/// /2102 10233 20163 30199 40202 58008 60001 333 59007 60007 91004 90710 91104=
08302 05/// /2204 10232 20142 30146 58008 60001 333 59008 60007 91004 90710 91105=
08306 02580 42409 10235 20152 30197 40203 58007 60001 84240 333 60007=
08314 02580 40208 10215 20142 30104 40204 58004 69901 83860 333 60007=
08330 02965 30202 10210 20083 39987 40211 58009 60001 80004 333 60007=
08335 05/// /0501 10215 20045 39569 40194 58007 60001 333 59016 60007 91002 90710 91102=
08348 02970 63102 10193 20038 39487 40203 58013 60001 80007 333 60007=
08359 02970 51704 10228 20138 30118 40214 58010 60001 80006 333 60007=
08360 02582 71805 10223 20136 30177 40214 58012 60001 81402 333 60007=
08373 02682 52005 10224 20143 30193 40214 58007 60001 82101 333 60007=
08383 02965 12104 10256 20106 30179 40202 58013 60001 80008 333 60007=
08391 02980 20303 10239 20092 30167 40203 58012 60001 80001 333 60007=
08397 12980 33602 10257 20135 30094 40195 58014 60001 80001=
08410 02782 20703 10232 20073 30098 40205 58018 60001 81101 333 60007=
08417 06/70 /0103 10212 20071 39541 40198 58011 60001 333 60007=
08419 02975 30000 10217 20082 39545 40190 58020 60001 81105 333 60007=
08420 05/80 /3302 10216 20059 39413 40188 58016 60001 333 55310 20000 59018 60007 91004 90710 91104=
08429 11682 71503 10218 20126 30132 40220 58010 60001 70341 81104=
08430 02570 62203 10223 20131 30140 40212 58017 60001 81204 333 60007=
08433 02675 31305 10222 20165 30215 40219 58009 60001 82204 333 60007=
08451 02986 40705 10253 20106 30164 40196 58014 60001 80006 333 60007=
08452 05/// /1004 10236 20146 30192 40199 58012 60001 333 59020 60007 91006 90710 91107=
08458 05/// /0709 10208 20164 30145 40182 58009 60001 333 59019 60007 91013 90710 91114=
08482 02582 61307 10223 20158 30203 40212 58010 60001 81502 333 60007=
08487 02584 31409 10240 20150 30184 40208 58011 60001 81401 333 60007=
08495 12480 70712 10205 20166 30200 40206 58008 60001 81102 333 55300 81816 87075=
08501 32584 21805 10213 20149 30242 40275 58005 82102 333 82827=
08505 32470 31803 10208 20158 30246 40295 50006 83801 333 82818=
08506 32/// /9902 10212 20156 30231 40297 52003 33391105 555 50004 60005=
08507 15/// /2504 10206 20190 30264 40294 50004 60002 333 10212 20166 3/015 55/// 61355 70000 91006=
08509 32560 31002 10218 20170 30230 40295 51006 83101 333 83830=
08511 46630 32403 10207 20163 30193 40301 52008 60001 70111 83260 333 83860 555 50004 60005=
08512 32580 ///// 10208 20164 30206 40300 50007 81800 333 81825=
08513 15/// /0001 10225 20158 60002 333 10228 20156 55/// 61340 70000 91003=
08514 46/// /2903 10203 29071 30219=
08515 32580 20604 10217 20149 30184 40301 52003 82800 333 81822=
08521 11457 70307 10209 20172 30169 40238 52004 60021 78088 86861 33385815 91010 91115=
08522 31568 79902 10237 20138 30169 40236 5200770312 86832 222// 00231 324// 40301 33385822 91105=
08524 11459 70209 10201 20171 30143 40239 52005 60021 78082 87831 33384814 85630=
08531 06/// /0404 10174 20146 30195 40233 52001 69911 333 60005 70002=
08532 32462 43405 10207 20125 30066 40224 58004 81131 333 81812 8307091108=
08533 06/// /3407 10223 20119 30179 40206 57005 60001 333 60005 70000=
08534 32570 30204 10216 20128 30204 40221 58004 81201 333 81820 83080=
08535 22475 53504 10225 20110 30127 40220 57006 81135 333 60005 70000 81817=
08537 22570 40003 10229 20110 30215 40219 58008 81231 333 60007 81825 83075=
08540 31560 23205 10191 20140 30163 40231 58003 70241 81131 333 81820=
08541 12488 63605 10194 20130 30099 40223 57008 60001 81101 333 81817 86080=
08544 32560 53103 10176 20136 30212 40233 50004 81234 333 81825 83359=
08546 15/// /3403 10189 20140 30121 40234 52001 60002 333 10194 20126 3/012 55/// 61240 70000 91004=
08548 06/// /0202 10188 20121 30028 40234 57002 69911 333 60005 70001=
08551 01466 12401 10178 20137 30179 40237 58005 69911 70162 83802 333 60005 70030 81815=
08554 32975 31203 10236 20095 30196 40202 57005 80004 333 83075=
08558 32580 63502 10212 20103 39905 40199 58012 81106 333 81820 86258=
08560 22/80 32903 10173 20077 39488 40231 58002 81032 333 60005 70000 81360 83058=
08561 22970 50102 10218 20081 39984 40210 58006 80001 333 60007 70000 85076=
08562 06/// /3501 10216 20056 39920 40214 57005 60001 333 60005 70000=
08567 22470 32502 10173 20080 39572 40234 57004 81231 333 60005 70000 81816 90760 91107=
08568 42480 71502 10134 20058 38680 48555 54000 87241 333 87810=
08570 42480 10602 10197 20066 39764 40213 58008 81148 333 81818=
08571 06/// /2502 10198 21007 39525 40221 57003 60001 333 60005 70000=
08575 06/// /3202 10170 20047 39424 40218 57005 60001 333 60005 70000=
08579 06/// /0203 10224 20097 30098 40219 57006 60001 333 60005 70000=
08583 42560 60528 10271 20189 40166 82231 333 58008 82820 85359=
08589 42470 50216 10290 20212 40159 82530 333 58008 82614 85360=
08594 32470 70519 10273 20204 40174 83234 333 58012 83814 83360 85170=
08936 45/// /2303 10065 21060 333 91005 90710 91105=
08938 45/// /2103 10044 21033 333 91005 90710 91105=



SMUS00 KWBC 251200
AAXX 25124